<?xml version="1.0" encoding="UTF-8" standalone="no" ?>
<gpx xmlns="http://www.topografix.com/GPX/1/1" xmlns:xsi="http://www.w3.org/2001/XMLSchema-instance" xsi:schemaLocation="http://www.topografix.com/GPX/1/1 http://www.topografix.com/GPX/1/1/gpx.xsd" version="1.1" creator="VisuGPX - https://www.visugpx.com">
  <metadata>
    <name>1er tracé du mardi 13 octobre</name>
    <desc><![CDATA[1er tracé du mardi 13 octobre]]></desc>
  </metadata>
  <trk>
    <name><![CDATA[1er tracé du mardi 13 octobre_1]]></name>
    <trkseg>
      <trkpt lat="49.55082" lon="1.85194">
        <ele>120.9</ele>
        <time>2015-10-13T06:52:33Z</time>
      </trkpt>
      <trkpt lat="49.55082" lon="1.85194">
        <ele>175</ele>
        <time>2015-10-13T06:53:04Z</time>
      </trkpt>
      <trkpt lat="49.55091" lon="1.85176">
        <ele>169</ele>
        <time>2015-10-13T06:53:12Z</time>
      </trkpt>
      <trkpt lat="49.55103" lon="1.85165">
        <ele>169</ele>
        <time>2015-10-13T06:53:23Z</time>
      </trkpt>
      <trkpt lat="49.55112" lon="1.85167">
        <ele>168</ele>
        <time>2015-10-13T06:53:32Z</time>
      </trkpt>
      <trkpt lat="49.55131" lon="1.8516">
        <ele>169</ele>
        <time>2015-10-13T06:53:46Z</time>
      </trkpt>
      <trkpt lat="49.55133" lon="1.85143">
        <ele>168</ele>
        <time>2015-10-13T06:53:55Z</time>
      </trkpt>
      <trkpt lat="49.55139" lon="1.85123">
        <ele>173</ele>
        <time>2015-10-13T06:54:06Z</time>
      </trkpt>
      <trkpt lat="49.55149" lon="1.85111">
        <ele>172</ele>
        <time>2015-10-13T06:54:18Z</time>
      </trkpt>
      <trkpt lat="49.55167" lon="1.85101">
        <ele>173</ele>
        <time>2015-10-13T06:54:41Z</time>
      </trkpt>
      <trkpt lat="49.55174" lon="1.8509">
        <ele>173</ele>
        <time>2015-10-13T06:54:49Z</time>
      </trkpt>
      <trkpt lat="49.55187" lon="1.85082">
        <ele>173</ele>
        <time>2015-10-13T06:55:02Z</time>
      </trkpt>
      <trkpt lat="49.55201" lon="1.8507">
        <ele>171</ele>
        <time>2015-10-13T06:55:19Z</time>
      </trkpt>
      <trkpt lat="49.55212" lon="1.85067">
        <ele>173</ele>
        <time>2015-10-13T06:55:28Z</time>
      </trkpt>
      <trkpt lat="49.55219" lon="1.85056">
        <ele>176</ele>
        <time>2015-10-13T06:55:40Z</time>
      </trkpt>
      <trkpt lat="49.55227" lon="1.85047">
        <ele>177</ele>
        <time>2015-10-13T06:55:48Z</time>
      </trkpt>
      <trkpt lat="49.55243" lon="1.85024">
        <ele>170</ele>
        <time>2015-10-13T06:56:05Z</time>
      </trkpt>
      <trkpt lat="49.55253" lon="1.85004">
        <ele>170</ele>
        <time>2015-10-13T06:56:19Z</time>
      </trkpt>
      <trkpt lat="49.55267" lon="1.84989">
        <ele>173</ele>
        <time>2015-10-13T06:56:36Z</time>
      </trkpt>
      <trkpt lat="49.55287" lon="1.84969">
        <ele>171</ele>
        <time>2015-10-13T06:56:55Z</time>
      </trkpt>
      <trkpt lat="49.55287" lon="1.84969">
        <ele>171</ele>
        <time>2015-10-13T06:57:01Z</time>
      </trkpt>
      <trkpt lat="49.55295" lon="1.8496">
        <ele>176</ele>
        <time>2015-10-13T06:57:06Z</time>
      </trkpt>
      <trkpt lat="49.55304" lon="1.8495">
        <ele>180</ele>
        <time>2015-10-13T06:57:18Z</time>
      </trkpt>
      <trkpt lat="49.55324" lon="1.84929">
        <ele>183</ele>
        <time>2015-10-13T06:57:34Z</time>
      </trkpt>
      <trkpt lat="49.55332" lon="1.84917">
        <ele>181</ele>
        <time>2015-10-13T06:57:45Z</time>
      </trkpt>
      <trkpt lat="49.55342" lon="1.84907">
        <ele>182</ele>
        <time>2015-10-13T06:57:55Z</time>
      </trkpt>
      <trkpt lat="49.55345" lon="1.84904">
        <ele>182</ele>
        <time>2015-10-13T06:57:57Z</time>
      </trkpt>
      <trkpt lat="49.55352" lon="1.84894">
        <ele>178</ele>
        <time>2015-10-13T06:58:06Z</time>
      </trkpt>
      <trkpt lat="49.55363" lon="1.84877">
        <ele>176</ele>
        <time>2015-10-13T06:58:20Z</time>
      </trkpt>
      <trkpt lat="49.55379" lon="1.84863">
        <ele>180</ele>
        <time>2015-10-13T06:58:35Z</time>
      </trkpt>
      <trkpt lat="49.55388" lon="1.84854">
        <ele>185</ele>
        <time>2015-10-13T06:58:45Z</time>
      </trkpt>
      <trkpt lat="49.55405" lon="1.84835">
        <ele>185</ele>
        <time>2015-10-13T06:59:03Z</time>
      </trkpt>
      <trkpt lat="49.55416" lon="1.84813">
        <ele>185</ele>
        <time>2015-10-13T06:59:19Z</time>
      </trkpt>
      <trkpt lat="49.55432" lon="1.84791">
        <ele>184</ele>
        <time>2015-10-13T06:59:37Z</time>
      </trkpt>
      <trkpt lat="49.55446" lon="1.84777">
        <ele>187</ele>
        <time>2015-10-13T06:59:52Z</time>
      </trkpt>
      <trkpt lat="49.55454" lon="1.84766">
        <ele>187</ele>
        <time>2015-10-13T07:00:03Z</time>
      </trkpt>
      <trkpt lat="49.55468" lon="1.84744">
        <ele>190</ele>
        <time>2015-10-13T07:00:19Z</time>
      </trkpt>
      <trkpt lat="49.55467" lon="1.84733">
        <ele>191</ele>
        <time>2015-10-13T07:00:22Z</time>
      </trkpt>
      <trkpt lat="49.5548" lon="1.8473">
        <ele>189</ele>
        <time>2015-10-13T07:00:33Z</time>
      </trkpt>
      <trkpt lat="49.55491" lon="1.8472">
        <ele>188</ele>
        <time>2015-10-13T07:00:43Z</time>
      </trkpt>
      <trkpt lat="49.5551" lon="1.84702">
        <ele>189</ele>
        <time>2015-10-13T07:01:02Z</time>
      </trkpt>
      <trkpt lat="49.55529" lon="1.84687">
        <ele>196</ele>
        <time>2015-10-13T07:01:20Z</time>
      </trkpt>
      <trkpt lat="49.55529" lon="1.84687">
        <ele>196</ele>
        <time>2015-10-13T07:04:35Z</time>
      </trkpt>
      <trkpt lat="49.55548" lon="1.84664">
        <ele>192</ele>
        <time>2015-10-13T07:05:17Z</time>
      </trkpt>
      <trkpt lat="49.55565" lon="1.84647">
        <ele>192</ele>
        <time>2015-10-13T07:05:34Z</time>
      </trkpt>
      <trkpt lat="49.55575" lon="1.8463">
        <ele>195</ele>
        <time>2015-10-13T07:05:46Z</time>
      </trkpt>
      <trkpt lat="49.55584" lon="1.84614">
        <ele>196</ele>
        <time>2015-10-13T07:05:59Z</time>
      </trkpt>
      <trkpt lat="49.55589" lon="1.84612">
        <ele>198</ele>
        <time>2015-10-13T07:06:03Z</time>
      </trkpt>
      <trkpt lat="49.5559" lon="1.84607">
        <ele>196</ele>
        <time>2015-10-13T07:06:12Z</time>
      </trkpt>
      <trkpt lat="49.556" lon="1.84587">
        <ele>194</ele>
        <time>2015-10-13T07:06:31Z</time>
      </trkpt>
      <trkpt lat="49.55612" lon="1.84573">
        <ele>198</ele>
        <time>2015-10-13T07:06:42Z</time>
      </trkpt>
      <trkpt lat="49.55623" lon="1.84558">
        <ele>198</ele>
        <time>2015-10-13T07:06:53Z</time>
      </trkpt>
      <trkpt lat="49.55632" lon="1.84543">
        <ele>201</ele>
        <time>2015-10-13T07:07:04Z</time>
      </trkpt>
      <trkpt lat="49.55648" lon="1.84517">
        <ele>203</ele>
        <time>2015-10-13T07:07:22Z</time>
      </trkpt>
      <trkpt lat="49.5566" lon="1.84502">
        <ele>203</ele>
        <time>2015-10-13T07:07:35Z</time>
      </trkpt>
      <trkpt lat="49.55672" lon="1.84483">
        <ele>206</ele>
        <time>2015-10-13T07:07:49Z</time>
      </trkpt>
      <trkpt lat="49.55684" lon="1.8446">
        <ele>203</ele>
        <time>2015-10-13T07:08:07Z</time>
      </trkpt>
      <trkpt lat="49.55704" lon="1.84437">
        <ele>203</ele>
        <time>2015-10-13T07:08:26Z</time>
      </trkpt>
      <trkpt lat="49.55717" lon="1.84413">
        <ele>206</ele>
        <time>2015-10-13T07:08:40Z</time>
      </trkpt>
      <trkpt lat="49.5572" lon="1.84399">
        <ele>209</ele>
        <time>2015-10-13T07:08:49Z</time>
      </trkpt>
      <trkpt lat="49.5574" lon="1.84383">
        <ele>212</ele>
        <time>2015-10-13T07:09:07Z</time>
      </trkpt>
      <trkpt lat="49.55752" lon="1.84372">
        <ele>216</ele>
        <time>2015-10-13T07:09:19Z</time>
      </trkpt>
      <trkpt lat="49.5576" lon="1.84351">
        <ele>211</ele>
        <time>2015-10-13T07:09:35Z</time>
      </trkpt>
      <trkpt lat="49.5578" lon="1.84323">
        <ele>210</ele>
        <time>2015-10-13T07:09:53Z</time>
      </trkpt>
      <trkpt lat="49.55788" lon="1.84306">
        <ele>211</ele>
        <time>2015-10-13T07:10:04Z</time>
      </trkpt>
      <trkpt lat="49.55799" lon="1.84285">
        <ele>213</ele>
        <time>2015-10-13T07:10:21Z</time>
      </trkpt>
      <trkpt lat="49.55814" lon="1.84265">
        <ele>212</ele>
        <time>2015-10-13T07:10:38Z</time>
      </trkpt>
      <trkpt lat="49.55831" lon="1.84245">
        <ele>215</ele>
        <time>2015-10-13T07:10:54Z</time>
      </trkpt>
      <trkpt lat="49.55842" lon="1.84227">
        <ele>217</ele>
        <time>2015-10-13T07:11:08Z</time>
      </trkpt>
      <trkpt lat="49.55848" lon="1.84215">
        <ele>218</ele>
        <time>2015-10-13T07:11:17Z</time>
      </trkpt>
      <trkpt lat="49.55864" lon="1.84188">
        <ele>216</ele>
        <time>2015-10-13T07:11:36Z</time>
      </trkpt>
      <trkpt lat="49.55874" lon="1.84165">
        <ele>217</ele>
        <time>2015-10-13T07:11:54Z</time>
      </trkpt>
      <trkpt lat="49.55887" lon="1.84149">
        <ele>217</ele>
        <time>2015-10-13T07:12:09Z</time>
      </trkpt>
      <trkpt lat="49.55902" lon="1.8413">
        <ele>221</ele>
        <time>2015-10-13T07:12:24Z</time>
      </trkpt>
      <trkpt lat="49.55907" lon="1.84111">
        <ele>221</ele>
        <time>2015-10-13T07:12:41Z</time>
      </trkpt>
      <trkpt lat="49.55921" lon="1.84099">
        <ele>224</ele>
        <time>2015-10-13T07:12:54Z</time>
      </trkpt>
      <trkpt lat="49.55935" lon="1.84077">
        <ele>226</ele>
        <time>2015-10-13T07:13:10Z</time>
      </trkpt>
      <trkpt lat="49.55948" lon="1.84058">
        <ele>229</ele>
        <time>2015-10-13T07:13:28Z</time>
      </trkpt>
      <trkpt lat="49.55962" lon="1.8404">
        <ele>227</ele>
        <time>2015-10-13T07:13:44Z</time>
      </trkpt>
      <trkpt lat="49.55968" lon="1.84025">
        <ele>225</ele>
        <time>2015-10-13T07:13:55Z</time>
      </trkpt>
      <trkpt lat="49.55977" lon="1.84007">
        <ele>226</ele>
        <time>2015-10-13T07:14:09Z</time>
      </trkpt>
      <trkpt lat="49.55988" lon="1.8398">
        <ele>227</ele>
        <time>2015-10-13T07:14:28Z</time>
      </trkpt>
      <trkpt lat="49.56003" lon="1.83967">
        <ele>227</ele>
        <time>2015-10-13T07:14:41Z</time>
      </trkpt>
      <trkpt lat="49.56009" lon="1.83947">
        <ele>225</ele>
        <time>2015-10-13T07:14:58Z</time>
      </trkpt>
      <trkpt lat="49.56022" lon="1.83936">
        <ele>226</ele>
        <time>2015-10-13T07:15:07Z</time>
      </trkpt>
      <trkpt lat="49.56025" lon="1.83922">
        <ele>228</ele>
        <time>2015-10-13T07:15:16Z</time>
      </trkpt>
      <trkpt lat="49.56036" lon="1.83906">
        <ele>223</ele>
        <time>2015-10-13T07:15:29Z</time>
      </trkpt>
      <trkpt lat="49.56039" lon="1.83893">
        <ele>223</ele>
        <time>2015-10-13T07:15:37Z</time>
      </trkpt>
      <trkpt lat="49.56047" lon="1.83866">
        <ele>226</ele>
        <time>2015-10-13T07:15:54Z</time>
      </trkpt>
      <trkpt lat="49.56052" lon="1.83854">
        <ele>226</ele>
        <time>2015-10-13T07:16:04Z</time>
      </trkpt>
      <trkpt lat="49.56061" lon="1.83827">
        <ele>226</ele>
        <time>2015-10-13T07:16:22Z</time>
      </trkpt>
      <trkpt lat="49.56069" lon="1.838">
        <ele>227</ele>
        <time>2015-10-13T07:16:39Z</time>
      </trkpt>
      <trkpt lat="49.5607" lon="1.83785">
        <ele>229</ele>
        <time>2015-10-13T07:16:54Z</time>
      </trkpt>
      <trkpt lat="49.56065" lon="1.83784">
        <ele>230</ele>
        <time>2015-10-13T07:17:02Z</time>
      </trkpt>
      <trkpt lat="49.56082" lon="1.83751">
        <ele>231</ele>
        <time>2015-10-13T07:30:54Z</time>
      </trkpt>
      <trkpt lat="49.56081" lon="1.83745">
        <ele>229</ele>
        <time>2015-10-13T07:30:56Z</time>
      </trkpt>
      <trkpt lat="49.56086" lon="1.83733">
        <ele>227</ele>
        <time>2015-10-13T07:31:06Z</time>
      </trkpt>
      <trkpt lat="49.56086" lon="1.83713">
        <ele>229</ele>
        <time>2015-10-13T07:31:11Z</time>
      </trkpt>
      <trkpt lat="49.56095" lon="1.83706">
        <ele>229</ele>
        <time>2015-10-13T07:31:23Z</time>
      </trkpt>
      <trkpt lat="49.56095" lon="1.83706">
        <ele>229</ele>
        <time>2015-10-13T07:31:31Z</time>
      </trkpt>
      <trkpt lat="49.56095" lon="1.83706">
        <ele>229</ele>
        <time>2015-10-13T07:31:32Z</time>
      </trkpt>
      <trkpt lat="49.56091" lon="1.8368">
        <ele>231</ele>
        <time>2015-10-13T07:31:47Z</time>
      </trkpt>
      <trkpt lat="49.56091" lon="1.8368">
        <ele>231</ele>
        <time>2015-10-13T07:31:52Z</time>
      </trkpt>
      <trkpt lat="49.56091" lon="1.8368">
        <ele>231</ele>
        <time>2015-10-13T07:31:53Z</time>
      </trkpt>
      <trkpt lat="49.56101" lon="1.83665">
        <ele>230</ele>
        <time>2015-10-13T07:32:08Z</time>
      </trkpt>
      <trkpt lat="49.56109" lon="1.83636">
        <ele>234</ele>
        <time>2015-10-13T07:32:24Z</time>
      </trkpt>
      <trkpt lat="49.56114" lon="1.83594">
        <ele>233</ele>
        <time>2015-10-13T07:32:45Z</time>
      </trkpt>
      <trkpt lat="49.56125" lon="1.83559">
        <ele>240</ele>
        <time>2015-10-13T07:33:05Z</time>
      </trkpt>
      <trkpt lat="49.56131" lon="1.83537">
        <ele>241</ele>
        <time>2015-10-13T07:33:17Z</time>
      </trkpt>
      <trkpt lat="49.56136" lon="1.8351">
        <ele>238</ele>
        <time>2015-10-13T07:33:31Z</time>
      </trkpt>
      <trkpt lat="49.56141" lon="1.83493">
        <ele>240</ele>
        <time>2015-10-13T07:33:40Z</time>
      </trkpt>
      <trkpt lat="49.56148" lon="1.83469">
        <ele>236</ele>
        <time>2015-10-13T07:33:51Z</time>
      </trkpt>
      <trkpt lat="49.56152" lon="1.83451">
        <ele>236</ele>
        <time>2015-10-13T07:34:03Z</time>
      </trkpt>
      <trkpt lat="49.56159" lon="1.83424">
        <ele>234</ele>
        <time>2015-10-13T07:34:18Z</time>
      </trkpt>
      <trkpt lat="49.56165" lon="1.83405">
        <ele>235</ele>
        <time>2015-10-13T07:34:29Z</time>
      </trkpt>
      <trkpt lat="49.56174" lon="1.83376">
        <ele>236</ele>
        <time>2015-10-13T07:34:46Z</time>
      </trkpt>
      <trkpt lat="49.56178" lon="1.83353">
        <ele>233</ele>
        <time>2015-10-13T07:34:58Z</time>
      </trkpt>
      <trkpt lat="49.56185" lon="1.83322">
        <ele>232</ele>
        <time>2015-10-13T07:35:16Z</time>
      </trkpt>
      <trkpt lat="49.56187" lon="1.83306">
        <ele>235</ele>
        <time>2015-10-13T07:35:27Z</time>
      </trkpt>
      <trkpt lat="49.56195" lon="1.83269">
        <ele>235</ele>
        <time>2015-10-13T07:35:46Z</time>
      </trkpt>
      <trkpt lat="49.562" lon="1.83253">
        <ele>235</ele>
        <time>2015-10-13T07:35:56Z</time>
      </trkpt>
      <trkpt lat="49.56205" lon="1.83229">
        <ele>232</ele>
        <time>2015-10-13T07:36:10Z</time>
      </trkpt>
      <trkpt lat="49.56208" lon="1.83204">
        <ele>234</ele>
        <time>2015-10-13T07:36:25Z</time>
      </trkpt>
      <trkpt lat="49.56216" lon="1.83178">
        <ele>232</ele>
        <time>2015-10-13T07:36:40Z</time>
      </trkpt>
      <trkpt lat="49.56222" lon="1.8315">
        <ele>230</ele>
        <time>2015-10-13T07:36:54Z</time>
      </trkpt>
      <trkpt lat="49.56228" lon="1.83132">
        <ele>233</ele>
        <time>2015-10-13T07:37:04Z</time>
      </trkpt>
      <trkpt lat="49.56236" lon="1.83102">
        <ele>234</ele>
        <time>2015-10-13T07:37:19Z</time>
      </trkpt>
      <trkpt lat="49.56244" lon="1.83077">
        <ele>234</ele>
        <time>2015-10-13T07:37:30Z</time>
      </trkpt>
      <trkpt lat="49.56247" lon="1.83063">
        <ele>232</ele>
        <time>2015-10-13T07:37:39Z</time>
      </trkpt>
      <trkpt lat="49.56256" lon="1.83038">
        <ele>237</ele>
        <time>2015-10-13T07:37:53Z</time>
      </trkpt>
      <trkpt lat="49.56262" lon="1.83011">
        <ele>240</ele>
        <time>2015-10-13T07:38:11Z</time>
      </trkpt>
      <trkpt lat="49.56265" lon="1.82992">
        <ele>235</ele>
        <time>2015-10-13T07:38:22Z</time>
      </trkpt>
      <trkpt lat="49.5627" lon="1.82973">
        <ele>234</ele>
        <time>2015-10-13T07:38:34Z</time>
      </trkpt>
      <trkpt lat="49.56284" lon="1.82944">
        <ele>236</ele>
        <time>2015-10-13T07:38:53Z</time>
      </trkpt>
      <trkpt lat="49.56284" lon="1.82927">
        <ele>236</ele>
        <time>2015-10-13T07:39:02Z</time>
      </trkpt>
      <trkpt lat="49.56299" lon="1.82896">
        <ele>230</ele>
        <time>2015-10-13T07:39:21Z</time>
      </trkpt>
      <trkpt lat="49.56302" lon="1.82888">
        <ele>233</ele>
        <time>2015-10-13T07:39:26Z</time>
      </trkpt>
      <trkpt lat="49.56305" lon="1.8287">
        <ele>233</ele>
        <time>2015-10-13T07:39:37Z</time>
      </trkpt>
      <trkpt lat="49.56312" lon="1.82847">
        <ele>231</ele>
        <time>2015-10-13T07:39:54Z</time>
      </trkpt>
      <trkpt lat="49.56324" lon="1.82818">
        <ele>230</ele>
        <time>2015-10-13T07:40:10Z</time>
      </trkpt>
      <trkpt lat="49.56329" lon="1.82797">
        <ele>230</ele>
        <time>2015-10-13T07:40:24Z</time>
      </trkpt>
      <trkpt lat="49.56338" lon="1.82772">
        <ele>232</ele>
        <time>2015-10-13T07:40:41Z</time>
      </trkpt>
      <trkpt lat="49.56338" lon="1.82754">
        <ele>237</ele>
        <time>2015-10-13T07:40:52Z</time>
      </trkpt>
      <trkpt lat="49.56346" lon="1.82742">
        <ele>240</ele>
        <time>2015-10-13T07:41:00Z</time>
      </trkpt>
      <trkpt lat="49.5635" lon="1.82729">
        <ele>237</ele>
        <time>2015-10-13T07:41:13Z</time>
      </trkpt>
      <trkpt lat="49.56352" lon="1.82705">
        <ele>239</ele>
        <time>2015-10-13T07:41:28Z</time>
      </trkpt>
      <trkpt lat="49.5636" lon="1.82677">
        <ele>240</ele>
        <time>2015-10-13T07:41:45Z</time>
      </trkpt>
      <trkpt lat="49.56362" lon="1.82644">
        <ele>237</ele>
        <time>2015-10-13T07:41:59Z</time>
      </trkpt>
      <trkpt lat="49.56369" lon="1.82623">
        <ele>235</ele>
        <time>2015-10-13T07:42:12Z</time>
      </trkpt>
      <trkpt lat="49.56376" lon="1.8259">
        <ele>236</ele>
        <time>2015-10-13T07:42:31Z</time>
      </trkpt>
      <trkpt lat="49.56382" lon="1.82565">
        <ele>242</ele>
        <time>2015-10-13T07:42:46Z</time>
      </trkpt>
      <trkpt lat="49.56391" lon="1.82542">
        <ele>240</ele>
        <time>2015-10-13T07:42:59Z</time>
      </trkpt>
      <trkpt lat="49.56391" lon="1.82542">
        <ele>240</ele>
        <time>2015-10-13T07:43:04Z</time>
      </trkpt>
      <trkpt lat="49.56391" lon="1.82542">
        <ele>240</ele>
        <time>2015-10-13T07:43:05Z</time>
      </trkpt>
      <trkpt lat="49.56387" lon="1.82518">
        <ele>236</ele>
        <time>2015-10-13T07:43:14Z</time>
      </trkpt>
      <trkpt lat="49.56397" lon="1.82487">
        <ele>240</ele>
        <time>2015-10-13T07:43:31Z</time>
      </trkpt>
      <trkpt lat="49.56405" lon="1.82459">
        <ele>241</ele>
        <time>2015-10-13T07:43:45Z</time>
      </trkpt>
      <trkpt lat="49.56411" lon="1.82434">
        <ele>238</ele>
        <time>2015-10-13T07:44:01Z</time>
      </trkpt>
      <trkpt lat="49.56411" lon="1.82434">
        <ele>238</ele>
        <time>2015-10-13T07:44:08Z</time>
      </trkpt>
      <trkpt lat="49.56419" lon="1.82403">
        <ele>240</ele>
        <time>2015-10-13T07:44:20Z</time>
      </trkpt>
      <trkpt lat="49.56418" lon="1.8237">
        <ele>238</ele>
        <time>2015-10-13T07:44:37Z</time>
      </trkpt>
      <trkpt lat="49.56411" lon="1.82367">
        <ele>235</ele>
        <time>2015-10-13T07:44:40Z</time>
      </trkpt>
      <trkpt lat="49.56426" lon="1.82352">
        <ele>238</ele>
        <time>2015-10-13T07:44:49Z</time>
      </trkpt>
      <trkpt lat="49.56431" lon="1.82341">
        <ele>239</ele>
        <time>2015-10-13T07:44:57Z</time>
      </trkpt>
      <trkpt lat="49.56438" lon="1.82315">
        <ele>239</ele>
        <time>2015-10-13T07:45:13Z</time>
      </trkpt>
      <trkpt lat="49.56442" lon="1.82292">
        <ele>238</ele>
        <time>2015-10-13T07:45:25Z</time>
      </trkpt>
      <trkpt lat="49.56452" lon="1.82261">
        <ele>248</ele>
        <time>2015-10-13T07:45:43Z</time>
      </trkpt>
      <trkpt lat="49.56457" lon="1.82242">
        <ele>248</ele>
        <time>2015-10-13T07:45:55Z</time>
      </trkpt>
      <trkpt lat="49.5646" lon="1.82217">
        <ele>240</ele>
        <time>2015-10-13T07:46:11Z</time>
      </trkpt>
      <trkpt lat="49.56472" lon="1.82189">
        <ele>240</ele>
        <time>2015-10-13T07:46:28Z</time>
      </trkpt>
      <trkpt lat="49.56475" lon="1.82168">
        <ele>240</ele>
        <time>2015-10-13T07:46:41Z</time>
      </trkpt>
      <trkpt lat="49.56478" lon="1.82149">
        <ele>238</ele>
        <time>2015-10-13T07:46:53Z</time>
      </trkpt>
      <trkpt lat="49.56487" lon="1.82118">
        <ele>240</ele>
        <time>2015-10-13T07:47:11Z</time>
      </trkpt>
      <trkpt lat="49.56492" lon="1.82099">
        <ele>239</ele>
        <time>2015-10-13T07:47:25Z</time>
      </trkpt>
      <trkpt lat="49.56495" lon="1.82075">
        <ele>239</ele>
        <time>2015-10-13T07:47:37Z</time>
      </trkpt>
      <trkpt lat="49.56503" lon="1.82051">
        <ele>238</ele>
        <time>2015-10-13T07:47:52Z</time>
      </trkpt>
      <trkpt lat="49.5651" lon="1.8202">
        <ele>240</ele>
        <time>2015-10-13T07:48:09Z</time>
      </trkpt>
      <trkpt lat="49.56512" lon="1.8199">
        <ele>240</ele>
        <time>2015-10-13T07:48:26Z</time>
      </trkpt>
      <trkpt lat="49.5652" lon="1.81954">
        <ele>237</ele>
        <time>2015-10-13T07:48:45Z</time>
      </trkpt>
      <trkpt lat="49.56526" lon="1.81931">
        <ele>241</ele>
        <time>2015-10-13T07:49:00Z</time>
      </trkpt>
      <trkpt lat="49.56532" lon="1.81896">
        <ele>239</ele>
        <time>2015-10-13T07:49:18Z</time>
      </trkpt>
      <trkpt lat="49.56535" lon="1.81875">
        <ele>240</ele>
        <time>2015-10-13T07:49:31Z</time>
      </trkpt>
      <trkpt lat="49.56539" lon="1.81853">
        <ele>239</ele>
        <time>2015-10-13T07:49:43Z</time>
      </trkpt>
      <trkpt lat="49.56548" lon="1.81821">
        <ele>237</ele>
        <time>2015-10-13T07:49:59Z</time>
      </trkpt>
      <trkpt lat="49.56554" lon="1.81803">
        <ele>243</ele>
        <time>2015-10-13T07:50:11Z</time>
      </trkpt>
      <trkpt lat="49.56558" lon="1.81769">
        <ele>238</ele>
        <time>2015-10-13T07:50:28Z</time>
      </trkpt>
      <trkpt lat="49.56561" lon="1.81744">
        <ele>236</ele>
        <time>2015-10-13T07:50:44Z</time>
      </trkpt>
      <trkpt lat="49.5657" lon="1.81709">
        <ele>238</ele>
        <time>2015-10-13T07:51:02Z</time>
      </trkpt>
      <trkpt lat="49.56571" lon="1.81703">
        <ele>239</ele>
        <time>2015-10-13T07:51:07Z</time>
      </trkpt>
      <trkpt lat="49.56572" lon="1.81698">
        <ele>243</ele>
        <time>2015-10-13T07:51:16Z</time>
      </trkpt>
      <trkpt lat="49.56578" lon="1.81653">
        <ele>247</ele>
        <time>2015-10-13T07:51:54Z</time>
      </trkpt>
      <trkpt lat="49.56584" lon="1.81637">
        <ele>243</ele>
        <time>2015-10-13T07:52:06Z</time>
      </trkpt>
      <trkpt lat="49.56584" lon="1.81637">
        <ele>243</ele>
        <time>2015-10-13T07:52:14Z</time>
      </trkpt>
      <trkpt lat="49.56592" lon="1.81616">
        <ele>241</ele>
        <time>2015-10-13T07:52:19Z</time>
      </trkpt>
      <trkpt lat="49.56601" lon="1.81592">
        <ele>243</ele>
        <time>2015-10-13T07:52:29Z</time>
      </trkpt>
      <trkpt lat="49.56606" lon="1.81596">
        <ele>243</ele>
        <time>2015-10-13T07:52:32Z</time>
      </trkpt>
      <trkpt lat="49.56601" lon="1.81592">
        <ele>243</ele>
        <time>2015-10-13T07:52:42Z</time>
      </trkpt>
      <trkpt lat="49.566" lon="1.81555">
        <ele>242</ele>
        <time>2015-10-13T07:52:53Z</time>
      </trkpt>
      <trkpt lat="49.566" lon="1.81555">
        <ele>242</ele>
        <time>2015-10-13T07:53:01Z</time>
      </trkpt>
      <trkpt lat="49.566" lon="1.81555">
        <ele>242</ele>
        <time>2015-10-13T07:53:02Z</time>
      </trkpt>
      <trkpt lat="49.56609" lon="1.81517">
        <ele>248</ele>
        <time>2015-10-13T07:53:17Z</time>
      </trkpt>
      <trkpt lat="49.56615" lon="1.81517">
        <ele>248</ele>
        <time>2015-10-13T07:53:23Z</time>
      </trkpt>
      <trkpt lat="49.56613" lon="1.81497">
        <ele>250</ele>
        <time>2015-10-13T07:53:30Z</time>
      </trkpt>
      <trkpt lat="49.56622" lon="1.81468">
        <ele>248</ele>
        <time>2015-10-13T07:53:41Z</time>
      </trkpt>
      <trkpt lat="49.56622" lon="1.81468">
        <ele>248</ele>
        <time>2015-10-13T07:53:46Z</time>
      </trkpt>
      <trkpt lat="49.56622" lon="1.81468">
        <ele>248</ele>
        <time>2015-10-13T07:53:47Z</time>
      </trkpt>
      <trkpt lat="49.56628" lon="1.81438">
        <ele>251</ele>
        <time>2015-10-13T07:54:00Z</time>
      </trkpt>
      <trkpt lat="49.56628" lon="1.81438">
        <ele>251</ele>
        <time>2015-10-13T07:54:05Z</time>
      </trkpt>
      <trkpt lat="49.56628" lon="1.81438">
        <ele>251</ele>
        <time>2015-10-13T07:54:06Z</time>
      </trkpt>
      <trkpt lat="49.56628" lon="1.81407">
        <ele>238</ele>
        <time>2015-10-13T07:54:22Z</time>
      </trkpt>
      <trkpt lat="49.56633" lon="1.814">
        <ele>236</ele>
        <time>2015-10-13T07:54:26Z</time>
      </trkpt>
      <trkpt lat="49.56637" lon="1.81378">
        <ele>243</ele>
        <time>2015-10-13T07:54:44Z</time>
      </trkpt>
      <trkpt lat="49.56651" lon="1.81337">
        <ele>243</ele>
        <time>2015-10-13T07:54:59Z</time>
      </trkpt>
      <trkpt lat="49.56634" lon="1.81332">
        <ele>243</ele>
        <time>2015-10-13T07:55:09Z</time>
      </trkpt>
      <trkpt lat="49.56634" lon="1.81332">
        <ele>243</ele>
        <time>2015-10-13T07:55:15Z</time>
      </trkpt>
      <trkpt lat="49.56634" lon="1.81332">
        <ele>243</ele>
        <time>2015-10-13T07:55:17Z</time>
      </trkpt>
      <trkpt lat="49.56644" lon="1.81308">
        <ele>242</ele>
        <time>2015-10-13T07:55:21Z</time>
      </trkpt>
      <trkpt lat="49.56643" lon="1.81289">
        <ele>244</ele>
        <time>2015-10-13T07:55:32Z</time>
      </trkpt>
      <trkpt lat="49.5665" lon="1.81267">
        <ele>239</ele>
        <time>2015-10-13T07:55:45Z</time>
      </trkpt>
      <trkpt lat="49.56661" lon="1.81227">
        <ele>238</ele>
        <time>2015-10-13T07:56:01Z</time>
      </trkpt>
      <trkpt lat="49.56651" lon="1.81213">
        <ele>244</ele>
        <time>2015-10-13T07:56:17Z</time>
      </trkpt>
      <trkpt lat="49.56651" lon="1.81213">
        <ele>244</ele>
        <time>2015-10-13T07:56:24Z</time>
      </trkpt>
      <trkpt lat="49.56651" lon="1.81213">
        <ele>244</ele>
        <time>2015-10-13T07:56:25Z</time>
      </trkpt>
      <trkpt lat="49.56661" lon="1.81186">
        <ele>237</ele>
        <time>2015-10-13T07:57:16Z</time>
      </trkpt>
      <trkpt lat="49.56673" lon="1.81134">
        <ele>241</ele>
        <time>2015-10-13T07:57:35Z</time>
      </trkpt>
      <trkpt lat="49.56676" lon="1.8111">
        <ele>247</ele>
        <time>2015-10-13T07:57:48Z</time>
      </trkpt>
      <trkpt lat="49.56683" lon="1.81087">
        <ele>247</ele>
        <time>2015-10-13T07:58:02Z</time>
      </trkpt>
      <trkpt lat="49.56687" lon="1.81054">
        <ele>244</ele>
        <time>2015-10-13T07:58:19Z</time>
      </trkpt>
      <trkpt lat="49.56691" lon="1.81043">
        <ele>241</ele>
        <time>2015-10-13T07:58:24Z</time>
      </trkpt>
      <trkpt lat="49.56691" lon="1.81032">
        <ele>240</ele>
        <time>2015-10-13T07:58:33Z</time>
      </trkpt>
      <trkpt lat="49.56692" lon="1.81016">
        <ele>239</ele>
        <time>2015-10-13T07:58:42Z</time>
      </trkpt>
      <trkpt lat="49.56696" lon="1.80995">
        <ele>242</ele>
        <time>2015-10-13T07:58:53Z</time>
      </trkpt>
      <trkpt lat="49.56698" lon="1.80973">
        <ele>243</ele>
        <time>2015-10-13T07:59:03Z</time>
      </trkpt>
      <trkpt lat="49.56703" lon="1.80954">
        <ele>246</ele>
        <time>2015-10-13T07:59:17Z</time>
      </trkpt>
      <trkpt lat="49.56705" lon="1.80928">
        <ele>249</ele>
        <time>2015-10-13T07:59:33Z</time>
      </trkpt>
      <trkpt lat="49.56704" lon="1.80907">
        <ele>246</ele>
        <time>2015-10-13T07:59:47Z</time>
      </trkpt>
      <trkpt lat="49.56693" lon="1.80894">
        <ele>246</ele>
        <time>2015-10-13T07:59:57Z</time>
      </trkpt>
      <trkpt lat="49.56707" lon="1.80887">
        <ele>253</ele>
        <time>2015-10-13T08:00:07Z</time>
      </trkpt>
      <trkpt lat="49.56707" lon="1.80867">
        <ele>246</ele>
        <time>2015-10-13T08:00:19Z</time>
      </trkpt>
      <trkpt lat="49.5671" lon="1.80824">
        <ele>249</ele>
        <time>2015-10-13T08:00:31Z</time>
      </trkpt>
      <trkpt lat="49.56711" lon="1.80804">
        <ele>249</ele>
        <time>2015-10-13T08:00:41Z</time>
      </trkpt>
      <trkpt lat="49.56711" lon="1.80804">
        <ele>249</ele>
        <time>2015-10-13T08:00:48Z</time>
      </trkpt>
      <trkpt lat="49.56711" lon="1.80804">
        <ele>249</ele>
        <time>2015-10-13T08:00:49Z</time>
      </trkpt>
      <trkpt lat="49.56711" lon="1.80782">
        <ele>251</ele>
        <time>2015-10-13T08:00:59Z</time>
      </trkpt>
      <trkpt lat="49.56717" lon="1.80745">
        <ele>255</ele>
        <time>2015-10-13T08:01:17Z</time>
      </trkpt>
      <trkpt lat="49.56718" lon="1.80737">
        <ele>254</ele>
        <time>2015-10-13T08:01:19Z</time>
      </trkpt>
      <trkpt lat="49.56726" lon="1.80717">
        <ele>252</ele>
        <time>2015-10-13T08:01:33Z</time>
      </trkpt>
      <trkpt lat="49.56726" lon="1.80717">
        <ele>252</ele>
        <time>2015-10-13T08:01:39Z</time>
      </trkpt>
      <trkpt lat="49.56726" lon="1.80698">
        <ele>249</ele>
        <time>2015-10-13T08:01:45Z</time>
      </trkpt>
      <trkpt lat="49.56731" lon="1.80686">
        <ele>245</ele>
        <time>2015-10-13T08:01:50Z</time>
      </trkpt>
      <trkpt lat="49.56733" lon="1.80672">
        <ele>245</ele>
        <time>2015-10-13T08:02:02Z</time>
      </trkpt>
      <trkpt lat="49.56736" lon="1.80657">
        <ele>246</ele>
        <time>2015-10-13T08:02:11Z</time>
      </trkpt>
      <trkpt lat="49.5674" lon="1.80632">
        <ele>247</ele>
        <time>2015-10-13T08:02:27Z</time>
      </trkpt>
      <trkpt lat="49.56745" lon="1.80607">
        <ele>243</ele>
        <time>2015-10-13T08:02:42Z</time>
      </trkpt>
      <trkpt lat="49.56746" lon="1.80603">
        <ele>244</ele>
        <time>2015-10-13T08:02:43Z</time>
      </trkpt>
      <trkpt lat="49.56746" lon="1.80592">
        <ele>244</ele>
        <time>2015-10-13T08:02:53Z</time>
      </trkpt>
      <trkpt lat="49.56753" lon="1.80568">
        <ele>241</ele>
        <time>2015-10-13T08:03:09Z</time>
      </trkpt>
      <trkpt lat="49.56753" lon="1.80553">
        <ele>241</ele>
        <time>2015-10-13T08:03:17Z</time>
      </trkpt>
      <trkpt lat="49.56758" lon="1.80544">
        <ele>239</ele>
        <time>2015-10-13T08:03:29Z</time>
      </trkpt>
      <trkpt lat="49.56763" lon="1.80524">
        <ele>241</ele>
        <time>2015-10-13T08:03:40Z</time>
      </trkpt>
      <trkpt lat="49.56767" lon="1.80502">
        <ele>240</ele>
        <time>2015-10-13T08:03:54Z</time>
      </trkpt>
      <trkpt lat="49.56771" lon="1.80478">
        <ele>241</ele>
        <time>2015-10-13T08:04:06Z</time>
      </trkpt>
      <trkpt lat="49.56775" lon="1.80452">
        <ele>243</ele>
        <time>2015-10-13T08:04:25Z</time>
      </trkpt>
      <trkpt lat="49.56782" lon="1.80425">
        <ele>247</ele>
        <time>2015-10-13T08:04:40Z</time>
      </trkpt>
      <trkpt lat="49.56784" lon="1.80419">
        <ele>247</ele>
        <time>2015-10-13T08:04:44Z</time>
      </trkpt>
      <trkpt lat="49.5679" lon="1.80408">
        <ele>246</ele>
        <time>2015-10-13T08:04:58Z</time>
      </trkpt>
      <trkpt lat="49.56797" lon="1.80379">
        <ele>241</ele>
        <time>2015-10-13T08:05:14Z</time>
      </trkpt>
      <trkpt lat="49.56802" lon="1.80356">
        <ele>241</ele>
        <time>2015-10-13T08:05:27Z</time>
      </trkpt>
      <trkpt lat="49.56806" lon="1.8034">
        <ele>242</ele>
        <time>2015-10-13T08:05:42Z</time>
      </trkpt>
      <trkpt lat="49.56817" lon="1.80312">
        <ele>244</ele>
        <time>2015-10-13T08:06:03Z</time>
      </trkpt>
      <trkpt lat="49.56823" lon="1.80292">
        <ele>241</ele>
        <time>2015-10-13T08:06:16Z</time>
      </trkpt>
      <trkpt lat="49.56829" lon="1.80268">
        <ele>237</ele>
        <time>2015-10-13T08:06:33Z</time>
      </trkpt>
      <trkpt lat="49.56839" lon="1.80249">
        <ele>239</ele>
        <time>2015-10-13T08:06:50Z</time>
      </trkpt>
      <trkpt lat="49.56846" lon="1.80235">
        <ele>235</ele>
        <time>2015-10-13T08:07:00Z</time>
      </trkpt>
      <trkpt lat="49.56858" lon="1.80203">
        <ele>237</ele>
        <time>2015-10-13T08:07:18Z</time>
      </trkpt>
      <trkpt lat="49.56866" lon="1.8018">
        <ele>237</ele>
        <time>2015-10-13T08:07:31Z</time>
      </trkpt>
      <trkpt lat="49.56866" lon="1.8018">
        <ele>237</ele>
        <time>2015-10-13T08:07:38Z</time>
      </trkpt>
      <trkpt lat="49.56866" lon="1.8018">
        <ele>237</ele>
        <time>2015-10-13T08:07:40Z</time>
      </trkpt>
      <trkpt lat="49.56876" lon="1.80159">
        <ele>237</ele>
        <time>2015-10-13T08:07:54Z</time>
      </trkpt>
      <trkpt lat="49.56888" lon="1.80135">
        <ele>239</ele>
        <time>2015-10-13T08:08:09Z</time>
      </trkpt>
      <trkpt lat="49.5689" lon="1.80113">
        <ele>241</ele>
        <time>2015-10-13T08:08:25Z</time>
      </trkpt>
      <trkpt lat="49.5689" lon="1.80113">
        <ele>241</ele>
        <time>2015-10-13T08:08:30Z</time>
      </trkpt>
      <trkpt lat="49.569" lon="1.80097">
        <ele>240</ele>
        <time>2015-10-13T08:08:37Z</time>
      </trkpt>
      <trkpt lat="49.56908" lon="1.80082">
        <ele>238</ele>
        <time>2015-10-13T08:08:49Z</time>
      </trkpt>
      <trkpt lat="49.56918" lon="1.80055">
        <ele>239</ele>
        <time>2015-10-13T08:09:10Z</time>
      </trkpt>
      <trkpt lat="49.56926" lon="1.80035">
        <ele>242</ele>
        <time>2015-10-13T08:09:23Z</time>
      </trkpt>
      <trkpt lat="49.5693" lon="1.80013">
        <ele>240</ele>
        <time>2015-10-13T08:09:32Z</time>
      </trkpt>
      <trkpt lat="49.56929" lon="1.80019">
        <ele>238</ele>
        <time>2015-10-13T08:09:41Z</time>
      </trkpt>
      <trkpt lat="49.56941" lon="1.79992">
        <ele>241</ele>
        <time>2015-10-13T08:09:59Z</time>
      </trkpt>
      <trkpt lat="49.56942" lon="1.79979">
        <ele>237</ele>
        <time>2015-10-13T08:10:09Z</time>
      </trkpt>
      <trkpt lat="49.56955" lon="1.79958">
        <ele>238</ele>
        <time>2015-10-13T08:10:15Z</time>
      </trkpt>
      <trkpt lat="49.56955" lon="1.79958">
        <ele>238</ele>
        <time>2015-10-13T08:10:20Z</time>
      </trkpt>
      <trkpt lat="49.56955" lon="1.79958">
        <ele>238</ele>
        <time>2015-10-13T08:10:21Z</time>
      </trkpt>
      <trkpt lat="49.56965" lon="1.79933">
        <ele>247</ele>
        <time>2015-10-13T08:10:33Z</time>
      </trkpt>
      <trkpt lat="49.56965" lon="1.79933">
        <ele>247</ele>
        <time>2015-10-13T08:10:40Z</time>
      </trkpt>
      <trkpt lat="49.5697" lon="1.79911">
        <ele>246</ele>
        <time>2015-10-13T08:10:48Z</time>
      </trkpt>
      <trkpt lat="49.56978" lon="1.7989">
        <ele>245</ele>
        <time>2015-10-13T08:11:02Z</time>
      </trkpt>
      <trkpt lat="49.56972" lon="1.79875">
        <ele>239</ele>
        <time>2015-10-13T08:11:15Z</time>
      </trkpt>
      <trkpt lat="49.5699" lon="1.79855">
        <ele>239</ele>
        <time>2015-10-13T08:11:24Z</time>
      </trkpt>
      <trkpt lat="49.56999" lon="1.7985">
        <ele>237</ele>
        <time>2015-10-13T08:11:36Z</time>
      </trkpt>
      <trkpt lat="49.57004" lon="1.79833">
        <ele>234</ele>
        <time>2015-10-13T08:11:50Z</time>
      </trkpt>
      <trkpt lat="49.57011" lon="1.79824">
        <ele>233</ele>
        <time>2015-10-13T08:11:57Z</time>
      </trkpt>
      <trkpt lat="49.57018" lon="1.79812">
        <ele>232</ele>
        <time>2015-10-13T08:12:07Z</time>
      </trkpt>
      <trkpt lat="49.57025" lon="1.79789">
        <ele>235</ele>
        <time>2015-10-13T08:12:13Z</time>
      </trkpt>
      <trkpt lat="49.57025" lon="1.79789">
        <ele>235</ele>
        <time>2015-10-13T08:12:20Z</time>
      </trkpt>
      <trkpt lat="49.57025" lon="1.79789">
        <ele>235</ele>
        <time>2015-10-13T08:12:21Z</time>
      </trkpt>
      <trkpt lat="49.57046" lon="1.79755">
        <ele>237</ele>
        <time>2015-10-13T08:13:00Z</time>
      </trkpt>
      <trkpt lat="49.57057" lon="1.79742">
        <ele>235</ele>
        <time>2015-10-13T08:13:15Z</time>
      </trkpt>
      <trkpt lat="49.57065" lon="1.7973">
        <ele>238</ele>
        <time>2015-10-13T08:13:21Z</time>
      </trkpt>
      <trkpt lat="49.57068" lon="1.7972">
        <ele>240</ele>
        <time>2015-10-13T08:13:35Z</time>
      </trkpt>
      <trkpt lat="49.5707" lon="1.79719">
        <ele>238</ele>
        <time>2015-10-13T08:13:36Z</time>
      </trkpt>
      <trkpt lat="49.57079" lon="1.79695">
        <ele>239</ele>
        <time>2015-10-13T08:13:53Z</time>
      </trkpt>
      <trkpt lat="49.57096" lon="1.79675">
        <ele>240</ele>
        <time>2015-10-13T08:14:09Z</time>
      </trkpt>
      <trkpt lat="49.57103" lon="1.79658">
        <ele>239</ele>
        <time>2015-10-13T08:14:18Z</time>
      </trkpt>
      <trkpt lat="49.57104" lon="1.79656">
        <ele>238</ele>
        <time>2015-10-13T08:14:31Z</time>
      </trkpt>
      <trkpt lat="49.57121" lon="1.7962">
        <ele>241</ele>
        <time>2015-10-13T08:16:11Z</time>
      </trkpt>
      <trkpt lat="49.57127" lon="1.79603">
        <ele>240</ele>
        <time>2015-10-13T08:16:20Z</time>
      </trkpt>
      <trkpt lat="49.57136" lon="1.79588">
        <ele>241</ele>
        <time>2015-10-13T08:16:35Z</time>
      </trkpt>
      <trkpt lat="49.57146" lon="1.79567">
        <ele>243</ele>
        <time>2015-10-13T08:16:48Z</time>
      </trkpt>
      <trkpt lat="49.57158" lon="1.79548">
        <ele>240</ele>
        <time>2015-10-13T08:17:04Z</time>
      </trkpt>
      <trkpt lat="49.57171" lon="1.79528">
        <ele>242</ele>
        <time>2015-10-13T08:17:22Z</time>
      </trkpt>
      <trkpt lat="49.5718" lon="1.79509">
        <ele>239</ele>
        <time>2015-10-13T08:17:36Z</time>
      </trkpt>
      <trkpt lat="49.57186" lon="1.79497">
        <ele>237</ele>
        <time>2015-10-13T08:17:50Z</time>
      </trkpt>
      <trkpt lat="49.57196" lon="1.79481">
        <ele>234</ele>
        <time>2015-10-13T08:18:02Z</time>
      </trkpt>
      <trkpt lat="49.57204" lon="1.79459">
        <ele>232</ele>
        <time>2015-10-13T08:18:19Z</time>
      </trkpt>
      <trkpt lat="49.57211" lon="1.7944">
        <ele>230</ele>
        <time>2015-10-13T08:18:33Z</time>
      </trkpt>
      <trkpt lat="49.57222" lon="1.79422">
        <ele>234</ele>
        <time>2015-10-13T08:18:46Z</time>
      </trkpt>
      <trkpt lat="49.57233" lon="1.79409">
        <ele>238</ele>
        <time>2015-10-13T08:19:00Z</time>
      </trkpt>
      <trkpt lat="49.57249" lon="1.79386">
        <ele>244</ele>
        <time>2015-10-13T08:19:20Z</time>
      </trkpt>
      <trkpt lat="49.57252" lon="1.7938">
        <ele>246</ele>
        <time>2015-10-13T08:19:25Z</time>
      </trkpt>
      <trkpt lat="49.57252" lon="1.79366">
        <ele>241</ele>
        <time>2015-10-13T08:19:37Z</time>
      </trkpt>
      <trkpt lat="49.57252" lon="1.79366">
        <ele>241</ele>
        <time>2015-10-13T08:19:46Z</time>
      </trkpt>
      <trkpt lat="49.57252" lon="1.79366">
        <ele>241</ele>
        <time>2015-10-13T08:19:47Z</time>
      </trkpt>
      <trkpt lat="49.57271" lon="1.79348">
        <ele>242</ele>
        <time>2015-10-13T08:20:09Z</time>
      </trkpt>
      <trkpt lat="49.57274" lon="1.79337">
        <ele>237</ele>
        <time>2015-10-13T08:20:18Z</time>
      </trkpt>
      <trkpt lat="49.57286" lon="1.79315">
        <ele>237</ele>
        <time>2015-10-13T08:20:34Z</time>
      </trkpt>
      <trkpt lat="49.57298" lon="1.79299">
        <ele>236</ele>
        <time>2015-10-13T08:20:49Z</time>
      </trkpt>
      <trkpt lat="49.57303" lon="1.79292">
        <ele>237</ele>
        <time>2015-10-13T08:20:54Z</time>
      </trkpt>
      <trkpt lat="49.57311" lon="1.79286">
        <ele>238</ele>
        <time>2015-10-13T08:21:08Z</time>
      </trkpt>
      <trkpt lat="49.57318" lon="1.79276">
        <ele>236</ele>
        <time>2015-10-13T08:21:18Z</time>
      </trkpt>
      <trkpt lat="49.57328" lon="1.79266">
        <ele>240</ele>
        <time>2015-10-13T08:21:28Z</time>
      </trkpt>
      <trkpt lat="49.57332" lon="1.79262">
        <ele>240</ele>
        <time>2015-10-13T08:21:32Z</time>
      </trkpt>
      <trkpt lat="49.5734" lon="1.79251">
        <ele>237</ele>
        <time>2015-10-13T08:21:47Z</time>
      </trkpt>
      <trkpt lat="49.57355" lon="1.79235">
        <ele>239</ele>
        <time>2015-10-13T08:22:00Z</time>
      </trkpt>
      <trkpt lat="49.57361" lon="1.79227">
        <ele>242</ele>
        <time>2015-10-13T08:22:08Z</time>
      </trkpt>
      <trkpt lat="49.57371" lon="1.79216">
        <ele>242</ele>
        <time>2015-10-13T08:22:21Z</time>
      </trkpt>
      <trkpt lat="49.57374" lon="1.7921">
        <ele>241</ele>
        <time>2015-10-13T08:22:25Z</time>
      </trkpt>
      <trkpt lat="49.57381" lon="1.79199">
        <ele>239</ele>
        <time>2015-10-13T08:22:36Z</time>
      </trkpt>
      <trkpt lat="49.57391" lon="1.79186">
        <ele>237</ele>
        <time>2015-10-13T08:22:49Z</time>
      </trkpt>
      <trkpt lat="49.57407" lon="1.7917">
        <ele>243</ele>
        <time>2015-10-13T08:23:02Z</time>
      </trkpt>
      <trkpt lat="49.5742" lon="1.79145">
        <ele>244</ele>
        <time>2015-10-13T08:23:19Z</time>
      </trkpt>
      <trkpt lat="49.57421" lon="1.79122">
        <ele>241</ele>
        <time>2015-10-13T08:23:31Z</time>
      </trkpt>
      <trkpt lat="49.57431" lon="1.79099">
        <ele>240</ele>
        <time>2015-10-13T08:23:49Z</time>
      </trkpt>
      <trkpt lat="49.5744" lon="1.79072">
        <ele>237</ele>
        <time>2015-10-13T08:24:06Z</time>
      </trkpt>
      <trkpt lat="49.57453" lon="1.79045">
        <ele>237</ele>
        <time>2015-10-13T08:24:29Z</time>
      </trkpt>
      <trkpt lat="49.57463" lon="1.79024">
        <ele>236</ele>
        <time>2015-10-13T08:24:40Z</time>
      </trkpt>
      <trkpt lat="49.57468" lon="1.79007">
        <ele>235</ele>
        <time>2015-10-13T08:24:50Z</time>
      </trkpt>
      <trkpt lat="49.57473" lon="1.78986">
        <ele>236</ele>
        <time>2015-10-13T08:25:03Z</time>
      </trkpt>
      <trkpt lat="49.57473" lon="1.78962">
        <ele>236</ele>
        <time>2015-10-13T08:25:16Z</time>
      </trkpt>
      <trkpt lat="49.57472" lon="1.78938">
        <ele>234</ele>
        <time>2015-10-13T08:25:29Z</time>
      </trkpt>
      <trkpt lat="49.57475" lon="1.78906">
        <ele>234</ele>
        <time>2015-10-13T08:25:49Z</time>
      </trkpt>
      <trkpt lat="49.57476" lon="1.78882">
        <ele>235</ele>
        <time>2015-10-13T08:26:10Z</time>
      </trkpt>
      <trkpt lat="49.57475" lon="1.78859">
        <ele>234</ele>
        <time>2015-10-13T08:26:24Z</time>
      </trkpt>
      <trkpt lat="49.57476" lon="1.78835">
        <ele>233</ele>
        <time>2015-10-13T08:26:39Z</time>
      </trkpt>
      <trkpt lat="49.57477" lon="1.78813">
        <ele>230</ele>
        <time>2015-10-13T08:26:55Z</time>
      </trkpt>
      <trkpt lat="49.57481" lon="1.78785">
        <ele>233</ele>
        <time>2015-10-13T08:27:13Z</time>
      </trkpt>
      <trkpt lat="49.57484" lon="1.78757">
        <ele>231</ele>
        <time>2015-10-13T08:27:32Z</time>
      </trkpt>
      <trkpt lat="49.57483" lon="1.78734">
        <ele>233</ele>
        <time>2015-10-13T08:27:43Z</time>
      </trkpt>
      <trkpt lat="49.57483" lon="1.78717">
        <ele>235</ele>
        <time>2015-10-13T08:27:55Z</time>
      </trkpt>
      <trkpt lat="49.57484" lon="1.78685">
        <ele>238</ele>
        <time>2015-10-13T08:28:15Z</time>
      </trkpt>
      <trkpt lat="49.57484" lon="1.78658">
        <ele>235</ele>
        <time>2015-10-13T08:28:31Z</time>
      </trkpt>
      <trkpt lat="49.57482" lon="1.78627">
        <ele>235</ele>
        <time>2015-10-13T08:28:51Z</time>
      </trkpt>
      <trkpt lat="49.5748" lon="1.78596">
        <ele>234</ele>
        <time>2015-10-13T08:29:11Z</time>
      </trkpt>
      <trkpt lat="49.5748" lon="1.7857">
        <ele>226</ele>
        <time>2015-10-13T08:29:26Z</time>
      </trkpt>
      <trkpt lat="49.57479" lon="1.78544">
        <ele>232</ele>
        <time>2015-10-13T08:29:43Z</time>
      </trkpt>
      <trkpt lat="49.57479" lon="1.78544">
        <ele>232</ele>
        <time>2015-10-13T08:29:50Z</time>
      </trkpt>
      <trkpt lat="49.57479" lon="1.78544">
        <ele>232</ele>
        <time>2015-10-13T08:29:51Z</time>
      </trkpt>
      <trkpt lat="49.57476" lon="1.78526">
        <ele>232</ele>
        <time>2015-10-13T08:29:57Z</time>
      </trkpt>
      <trkpt lat="49.57479" lon="1.785">
        <ele>234</ele>
        <time>2015-10-13T08:30:09Z</time>
      </trkpt>
      <trkpt lat="49.57479" lon="1.7847">
        <ele>236</ele>
        <time>2015-10-13T08:30:29Z</time>
      </trkpt>
      <trkpt lat="49.57476" lon="1.78445">
        <ele>238</ele>
        <time>2015-10-13T08:30:45Z</time>
      </trkpt>
      <trkpt lat="49.57471" lon="1.78422">
        <ele>236</ele>
        <time>2015-10-13T08:31:01Z</time>
      </trkpt>
      <trkpt lat="49.57474" lon="1.78396">
        <ele>225</ele>
        <time>2015-10-13T08:31:13Z</time>
      </trkpt>
      <trkpt lat="49.57471" lon="1.78387">
        <ele>235</ele>
        <time>2015-10-13T08:31:18Z</time>
      </trkpt>
      <trkpt lat="49.57472" lon="1.78369">
        <ele>237</ele>
        <time>2015-10-13T08:31:32Z</time>
      </trkpt>
      <trkpt lat="49.57475" lon="1.78358">
        <ele>238</ele>
        <time>2015-10-13T08:31:46Z</time>
      </trkpt>
      <trkpt lat="49.57474" lon="1.78358">
        <ele>238</ele>
        <time>2015-10-13T08:31:55Z</time>
      </trkpt>
      <trkpt lat="49.57478" lon="1.78339">
        <ele>239</ele>
        <time>2015-10-13T08:38:08Z</time>
      </trkpt>
      <trkpt lat="49.57475" lon="1.78309">
        <ele>242</ele>
        <time>2015-10-13T08:38:24Z</time>
      </trkpt>
      <trkpt lat="49.57477" lon="1.78283">
        <ele>243</ele>
        <time>2015-10-13T08:38:40Z</time>
      </trkpt>
      <trkpt lat="49.57477" lon="1.78258">
        <ele>246</ele>
        <time>2015-10-13T08:38:54Z</time>
      </trkpt>
      <trkpt lat="49.57477" lon="1.78225">
        <ele>249</ele>
        <time>2015-10-13T08:39:12Z</time>
      </trkpt>
      <trkpt lat="49.57477" lon="1.78202">
        <ele>251</ele>
        <time>2015-10-13T08:39:25Z</time>
      </trkpt>
      <trkpt lat="49.57478" lon="1.78184">
        <ele>254</ele>
        <time>2015-10-13T08:39:37Z</time>
      </trkpt>
      <trkpt lat="49.57475" lon="1.78164">
        <ele>256</ele>
        <time>2015-10-13T08:39:47Z</time>
      </trkpt>
      <trkpt lat="49.57477" lon="1.78133">
        <ele>251</ele>
        <time>2015-10-13T08:40:01Z</time>
      </trkpt>
      <trkpt lat="49.57481" lon="1.78117">
        <ele>243</ele>
        <time>2015-10-13T08:40:11Z</time>
      </trkpt>
      <trkpt lat="49.57479" lon="1.78101">
        <ele>241</ele>
        <time>2015-10-13T08:40:23Z</time>
      </trkpt>
      <trkpt lat="49.57481" lon="1.78072">
        <ele>240</ele>
        <time>2015-10-13T08:40:40Z</time>
      </trkpt>
      <trkpt lat="49.57486" lon="1.78049">
        <ele>236</ele>
        <time>2015-10-13T08:40:55Z</time>
      </trkpt>
      <trkpt lat="49.57503" lon="1.78028">
        <ele>235</ele>
        <time>2015-10-13T08:41:10Z</time>
      </trkpt>
      <trkpt lat="49.57501" lon="1.78012">
        <ele>236</ele>
        <time>2015-10-13T08:41:23Z</time>
      </trkpt>
      <trkpt lat="49.57525" lon="1.78003">
        <ele>237</ele>
        <time>2015-10-13T08:41:41Z</time>
      </trkpt>
      <trkpt lat="49.57531" lon="1.77982">
        <ele>243</ele>
        <time>2015-10-13T08:41:53Z</time>
      </trkpt>
      <trkpt lat="49.5754" lon="1.77969">
        <ele>243</ele>
        <time>2015-10-13T08:42:06Z</time>
      </trkpt>
      <trkpt lat="49.57548" lon="1.77956">
        <ele>238</ele>
        <time>2015-10-13T08:42:17Z</time>
      </trkpt>
      <trkpt lat="49.57568" lon="1.77936">
        <ele>238</ele>
        <time>2015-10-13T08:42:37Z</time>
      </trkpt>
      <trkpt lat="49.57574" lon="1.77923">
        <ele>235</ele>
        <time>2015-10-13T08:42:49Z</time>
      </trkpt>
      <trkpt lat="49.57589" lon="1.77902">
        <ele>232</ele>
        <time>2015-10-13T08:43:05Z</time>
      </trkpt>
      <trkpt lat="49.57606" lon="1.77884">
        <ele>235</ele>
        <time>2015-10-13T08:43:22Z</time>
      </trkpt>
      <trkpt lat="49.57623" lon="1.77865">
        <ele>234</ele>
        <time>2015-10-13T08:43:37Z</time>
      </trkpt>
      <trkpt lat="49.57644" lon="1.77844">
        <ele>237</ele>
        <time>2015-10-13T08:43:56Z</time>
      </trkpt>
      <trkpt lat="49.57654" lon="1.77825">
        <ele>235</ele>
        <time>2015-10-13T08:44:09Z</time>
      </trkpt>
      <trkpt lat="49.57668" lon="1.77805">
        <ele>239</ele>
        <time>2015-10-13T08:44:20Z</time>
      </trkpt>
      <trkpt lat="49.57679" lon="1.77779">
        <ele>241</ele>
        <time>2015-10-13T08:44:37Z</time>
      </trkpt>
      <trkpt lat="49.57689" lon="1.77756">
        <ele>237</ele>
        <time>2015-10-13T08:44:50Z</time>
      </trkpt>
      <trkpt lat="49.57703" lon="1.77729">
        <ele>242</ele>
        <time>2015-10-13T08:45:06Z</time>
      </trkpt>
      <trkpt lat="49.57711" lon="1.77707">
        <ele>242</ele>
        <time>2015-10-13T08:45:21Z</time>
      </trkpt>
      <trkpt lat="49.57723" lon="1.77689">
        <ele>243</ele>
        <time>2015-10-13T08:45:33Z</time>
      </trkpt>
      <trkpt lat="49.57737" lon="1.77671">
        <ele>251</ele>
        <time>2015-10-13T08:45:50Z</time>
      </trkpt>
      <trkpt lat="49.57744" lon="1.77659">
        <ele>244</ele>
        <time>2015-10-13T08:46:00Z</time>
      </trkpt>
      <trkpt lat="49.57761" lon="1.77632">
        <ele>246</ele>
        <time>2015-10-13T08:46:18Z</time>
      </trkpt>
      <trkpt lat="49.57777" lon="1.77608">
        <ele>247</ele>
        <time>2015-10-13T08:46:37Z</time>
      </trkpt>
      <trkpt lat="49.57781" lon="1.77593">
        <ele>244</ele>
        <time>2015-10-13T08:46:47Z</time>
      </trkpt>
      <trkpt lat="49.57799" lon="1.77571">
        <ele>249</ele>
        <time>2015-10-13T08:47:06Z</time>
      </trkpt>
      <trkpt lat="49.57814" lon="1.77555">
        <ele>245</ele>
        <time>2015-10-13T08:47:18Z</time>
      </trkpt>
      <trkpt lat="49.57825" lon="1.77545">
        <ele>246</ele>
        <time>2015-10-13T08:47:27Z</time>
      </trkpt>
      <trkpt lat="49.57831" lon="1.77531">
        <ele>243</ele>
        <time>2015-10-13T08:47:39Z</time>
      </trkpt>
      <trkpt lat="49.5784" lon="1.77515">
        <ele>244</ele>
        <time>2015-10-13T08:47:53Z</time>
      </trkpt>
      <trkpt lat="49.57849" lon="1.77495">
        <ele>230</ele>
        <time>2015-10-13T08:48:08Z</time>
      </trkpt>
      <trkpt lat="49.57869" lon="1.77476">
        <ele>246</ele>
        <time>2015-10-13T08:48:25Z</time>
      </trkpt>
      <trkpt lat="49.57877" lon="1.77467">
        <ele>250</ele>
        <time>2015-10-13T08:48:34Z</time>
      </trkpt>
      <trkpt lat="49.57892" lon="1.77448">
        <ele>249</ele>
        <time>2015-10-13T08:48:49Z</time>
      </trkpt>
      <trkpt lat="49.57903" lon="1.77422">
        <ele>245</ele>
        <time>2015-10-13T08:49:04Z</time>
      </trkpt>
      <trkpt lat="49.57917" lon="1.77411">
        <ele>247</ele>
        <time>2015-10-13T08:49:16Z</time>
      </trkpt>
      <trkpt lat="49.57922" lon="1.7739">
        <ele>242</ele>
        <time>2015-10-13T08:49:32Z</time>
      </trkpt>
      <trkpt lat="49.57932" lon="1.77375">
        <ele>240</ele>
        <time>2015-10-13T08:49:42Z</time>
      </trkpt>
      <trkpt lat="49.57942" lon="1.77366">
        <ele>243</ele>
        <time>2015-10-13T08:49:49Z</time>
      </trkpt>
      <trkpt lat="49.57952" lon="1.77344">
        <ele>243</ele>
        <time>2015-10-13T08:50:02Z</time>
      </trkpt>
      <trkpt lat="49.57963" lon="1.77328">
        <ele>242</ele>
        <time>2015-10-13T08:50:14Z</time>
      </trkpt>
      <trkpt lat="49.5798" lon="1.77311">
        <ele>241</ele>
        <time>2015-10-13T08:50:31Z</time>
      </trkpt>
      <trkpt lat="49.57994" lon="1.77287">
        <ele>242</ele>
        <time>2015-10-13T08:50:48Z</time>
      </trkpt>
      <trkpt lat="49.57995" lon="1.77284">
        <ele>241</ele>
        <time>2015-10-13T08:50:50Z</time>
      </trkpt>
      <trkpt lat="49.58008" lon="1.77267">
        <ele>244</ele>
        <time>2015-10-13T08:51:06Z</time>
      </trkpt>
      <trkpt lat="49.58012" lon="1.77256">
        <ele>239</ele>
        <time>2015-10-13T08:51:17Z</time>
      </trkpt>
      <trkpt lat="49.58025" lon="1.77229">
        <ele>242</ele>
        <time>2015-10-13T08:51:34Z</time>
      </trkpt>
      <trkpt lat="49.5804" lon="1.77214">
        <ele>243</ele>
        <time>2015-10-13T08:51:44Z</time>
      </trkpt>
      <trkpt lat="49.58051" lon="1.772">
        <ele>243</ele>
        <time>2015-10-13T08:51:53Z</time>
      </trkpt>
      <trkpt lat="49.58061" lon="1.77186">
        <ele>244</ele>
        <time>2015-10-13T08:52:03Z</time>
      </trkpt>
      <trkpt lat="49.58073" lon="1.77167">
        <ele>243</ele>
        <time>2015-10-13T08:52:16Z</time>
      </trkpt>
      <trkpt lat="49.58088" lon="1.77144">
        <ele>243</ele>
        <time>2015-10-13T08:52:32Z</time>
      </trkpt>
      <trkpt lat="49.58095" lon="1.77133">
        <ele>244</ele>
        <time>2015-10-13T08:52:40Z</time>
      </trkpt>
      <trkpt lat="49.58103" lon="1.77122">
        <ele>244</ele>
        <time>2015-10-13T08:52:48Z</time>
      </trkpt>
      <trkpt lat="49.58111" lon="1.7711">
        <ele>244</ele>
        <time>2015-10-13T08:53:01Z</time>
      </trkpt>
      <trkpt lat="49.58119" lon="1.77094">
        <ele>250</ele>
        <time>2015-10-13T08:53:12Z</time>
      </trkpt>
      <trkpt lat="49.58132" lon="1.7707">
        <ele>249</ele>
        <time>2015-10-13T08:53:29Z</time>
      </trkpt>
      <trkpt lat="49.58148" lon="1.77046">
        <ele>249</ele>
        <time>2015-10-13T08:53:48Z</time>
      </trkpt>
      <trkpt lat="49.5816" lon="1.77022">
        <ele>245</ele>
        <time>2015-10-13T08:54:04Z</time>
      </trkpt>
      <trkpt lat="49.58176" lon="1.77004">
        <ele>245</ele>
        <time>2015-10-13T08:54:21Z</time>
      </trkpt>
      <trkpt lat="49.58192" lon="1.76986">
        <ele>246</ele>
        <time>2015-10-13T08:54:32Z</time>
      </trkpt>
      <trkpt lat="49.58198" lon="1.76971">
        <ele>252</ele>
        <time>2015-10-13T08:54:41Z</time>
      </trkpt>
      <trkpt lat="49.58198" lon="1.76971">
        <ele>252</ele>
        <time>2015-10-13T08:54:46Z</time>
      </trkpt>
      <trkpt lat="49.58206" lon="1.76962">
        <ele>251</ele>
        <time>2015-10-13T08:54:50Z</time>
      </trkpt>
      <trkpt lat="49.58217" lon="1.76944">
        <ele>249</ele>
        <time>2015-10-13T08:55:06Z</time>
      </trkpt>
      <trkpt lat="49.5823" lon="1.76925">
        <ele>244</ele>
        <time>2015-10-13T08:55:22Z</time>
      </trkpt>
      <trkpt lat="49.58245" lon="1.769">
        <ele>248</ele>
        <time>2015-10-13T08:55:35Z</time>
      </trkpt>
      <trkpt lat="49.5825" lon="1.76885">
        <ele>242</ele>
        <time>2015-10-13T08:55:46Z</time>
      </trkpt>
      <trkpt lat="49.58254" lon="1.76876">
        <ele>243</ele>
        <time>2015-10-13T08:55:48Z</time>
      </trkpt>
      <trkpt lat="49.58258" lon="1.76875">
        <ele>243</ele>
        <time>2015-10-13T08:55:59Z</time>
      </trkpt>
      <trkpt lat="49.58274" lon="1.76853">
        <ele>248</ele>
        <time>2015-10-13T08:56:16Z</time>
      </trkpt>
      <trkpt lat="49.58286" lon="1.7683">
        <ele>248</ele>
        <time>2015-10-13T08:56:32Z</time>
      </trkpt>
      <trkpt lat="49.58298" lon="1.76814">
        <ele>249</ele>
        <time>2015-10-13T08:56:37Z</time>
      </trkpt>
      <trkpt lat="49.58306" lon="1.76801">
        <ele>250</ele>
        <time>2015-10-13T08:56:52Z</time>
      </trkpt>
      <trkpt lat="49.58322" lon="1.76783">
        <ele>251</ele>
        <time>2015-10-13T08:57:07Z</time>
      </trkpt>
      <trkpt lat="49.58329" lon="1.7677">
        <ele>246</ele>
        <time>2015-10-13T08:57:19Z</time>
      </trkpt>
      <trkpt lat="49.5835" lon="1.76739">
        <ele>248</ele>
        <time>2015-10-13T08:57:38Z</time>
      </trkpt>
      <trkpt lat="49.5836" lon="1.7672">
        <ele>246</ele>
        <time>2015-10-13T08:57:52Z</time>
      </trkpt>
      <trkpt lat="49.58372" lon="1.76704">
        <ele>247</ele>
        <time>2015-10-13T08:58:09Z</time>
      </trkpt>
      <trkpt lat="49.58378" lon="1.76692">
        <ele>247</ele>
        <time>2015-10-13T08:58:16Z</time>
      </trkpt>
      <trkpt lat="49.58393" lon="1.76662">
        <ele>244</ele>
        <time>2015-10-13T08:58:34Z</time>
      </trkpt>
      <trkpt lat="49.5841" lon="1.76642">
        <ele>246</ele>
        <time>2015-10-13T08:58:50Z</time>
      </trkpt>
      <trkpt lat="49.58415" lon="1.76638">
        <ele>247</ele>
        <time>2015-10-13T08:58:52Z</time>
      </trkpt>
      <trkpt lat="49.58424" lon="1.76623">
        <ele>244</ele>
        <time>2015-10-13T08:59:07Z</time>
      </trkpt>
      <trkpt lat="49.58434" lon="1.76606">
        <ele>247</ele>
        <time>2015-10-13T08:59:19Z</time>
      </trkpt>
      <trkpt lat="49.58449" lon="1.76586">
        <ele>240</ele>
        <time>2015-10-13T08:59:35Z</time>
      </trkpt>
      <trkpt lat="49.58457" lon="1.7657">
        <ele>242</ele>
        <time>2015-10-13T08:59:47Z</time>
      </trkpt>
      <trkpt lat="49.58475" lon="1.76553">
        <ele>249</ele>
        <time>2015-10-13T09:00:05Z</time>
      </trkpt>
      <trkpt lat="49.5849" lon="1.76526">
        <ele>248</ele>
        <time>2015-10-13T09:00:21Z</time>
      </trkpt>
      <trkpt lat="49.58497" lon="1.76514">
        <ele>247</ele>
        <time>2015-10-13T09:00:31Z</time>
      </trkpt>
      <trkpt lat="49.58515" lon="1.76486">
        <ele>251</ele>
        <time>2015-10-13T09:00:50Z</time>
      </trkpt>
      <trkpt lat="49.58524" lon="1.76472">
        <ele>252</ele>
        <time>2015-10-13T09:01:03Z</time>
      </trkpt>
      <trkpt lat="49.58533" lon="1.76455">
        <ele>248</ele>
        <time>2015-10-13T09:01:13Z</time>
      </trkpt>
      <trkpt lat="49.58544" lon="1.7644">
        <ele>249</ele>
        <time>2015-10-13T09:01:22Z</time>
      </trkpt>
      <trkpt lat="49.58547" lon="1.76422">
        <ele>249</ele>
        <time>2015-10-13T09:01:32Z</time>
      </trkpt>
      <trkpt lat="49.58562" lon="1.76409">
        <ele>249</ele>
        <time>2015-10-13T09:01:45Z</time>
      </trkpt>
      <trkpt lat="49.58568" lon="1.7638">
        <ele>247</ele>
        <time>2015-10-13T09:01:58Z</time>
      </trkpt>
      <trkpt lat="49.58569" lon="1.76372">
        <ele>244</ele>
        <time>2015-10-13T09:02:02Z</time>
      </trkpt>
      <trkpt lat="49.58576" lon="1.76361">
        <ele>243</ele>
        <time>2015-10-13T09:02:15Z</time>
      </trkpt>
      <trkpt lat="49.58591" lon="1.76334">
        <ele>245</ele>
        <time>2015-10-13T09:02:32Z</time>
      </trkpt>
      <trkpt lat="49.58605" lon="1.76295">
        <ele>249</ele>
        <time>2015-10-13T09:02:53Z</time>
      </trkpt>
      <trkpt lat="49.58612" lon="1.76275">
        <ele>247</ele>
        <time>2015-10-13T09:03:04Z</time>
      </trkpt>
      <trkpt lat="49.58621" lon="1.76256">
        <ele>246</ele>
        <time>2015-10-13T09:03:17Z</time>
      </trkpt>
      <trkpt lat="49.5863" lon="1.76228">
        <ele>242</ele>
        <time>2015-10-13T09:03:32Z</time>
      </trkpt>
      <trkpt lat="49.58634" lon="1.7621">
        <ele>240</ele>
        <time>2015-10-13T09:03:44Z</time>
      </trkpt>
      <trkpt lat="49.58652" lon="1.76178">
        <ele>243</ele>
        <time>2015-10-13T09:04:03Z</time>
      </trkpt>
      <trkpt lat="49.58655" lon="1.76156">
        <ele>237</ele>
        <time>2015-10-13T09:04:15Z</time>
      </trkpt>
      <trkpt lat="49.58659" lon="1.76136">
        <ele>234</ele>
        <time>2015-10-13T09:04:26Z</time>
      </trkpt>
      <trkpt lat="49.5867" lon="1.76113">
        <ele>231</ele>
        <time>2015-10-13T09:04:41Z</time>
      </trkpt>
      <trkpt lat="49.58682" lon="1.761">
        <ele>238</ele>
        <time>2015-10-13T09:04:51Z</time>
      </trkpt>
      <trkpt lat="49.5869" lon="1.76086">
        <ele>240</ele>
        <time>2015-10-13T09:04:59Z</time>
      </trkpt>
      <trkpt lat="49.58694" lon="1.76077">
        <ele>242</ele>
        <time>2015-10-13T09:05:10Z</time>
      </trkpt>
      <trkpt lat="49.58702" lon="1.7606">
        <ele>242</ele>
        <time>2015-10-13T09:05:21Z</time>
      </trkpt>
      <trkpt lat="49.58711" lon="1.7604">
        <ele>243</ele>
        <time>2015-10-13T09:05:32Z</time>
      </trkpt>
      <trkpt lat="49.58721" lon="1.76019">
        <ele>242</ele>
        <time>2015-10-13T09:05:45Z</time>
      </trkpt>
      <trkpt lat="49.58727" lon="1.76002">
        <ele>241</ele>
        <time>2015-10-13T09:05:54Z</time>
      </trkpt>
      <trkpt lat="49.58739" lon="1.7598">
        <ele>246</ele>
        <time>2015-10-13T09:06:08Z</time>
      </trkpt>
      <trkpt lat="49.58754" lon="1.7595">
        <ele>249</ele>
        <time>2015-10-13T09:06:26Z</time>
      </trkpt>
      <trkpt lat="49.58757" lon="1.7594">
        <ele>247</ele>
        <time>2015-10-13T09:06:33Z</time>
      </trkpt>
      <trkpt lat="49.58767" lon="1.75911">
        <ele>245</ele>
        <time>2015-10-13T09:06:49Z</time>
      </trkpt>
      <trkpt lat="49.58772" lon="1.75886">
        <ele>243</ele>
        <time>2015-10-13T09:07:01Z</time>
      </trkpt>
      <trkpt lat="49.5878" lon="1.75863">
        <ele>245</ele>
        <time>2015-10-13T09:07:15Z</time>
      </trkpt>
      <trkpt lat="49.58789" lon="1.75831">
        <ele>242</ele>
        <time>2015-10-13T09:07:31Z</time>
      </trkpt>
      <trkpt lat="49.58796" lon="1.75804">
        <ele>241</ele>
        <time>2015-10-13T09:07:45Z</time>
      </trkpt>
      <trkpt lat="49.58805" lon="1.7578">
        <ele>243</ele>
        <time>2015-10-13T09:08:00Z</time>
      </trkpt>
      <trkpt lat="49.58812" lon="1.75753">
        <ele>242</ele>
        <time>2015-10-13T09:08:16Z</time>
      </trkpt>
      <trkpt lat="49.58815" lon="1.75742">
        <ele>241</ele>
        <time>2015-10-13T09:08:24Z</time>
      </trkpt>
      <trkpt lat="49.58819" lon="1.7573">
        <ele>244</ele>
        <time>2015-10-13T09:08:38Z</time>
      </trkpt>
      <trkpt lat="49.58827" lon="1.75709">
        <ele>246</ele>
        <time>2015-10-13T09:08:53Z</time>
      </trkpt>
      <trkpt lat="49.58839" lon="1.75677">
        <ele>247</ele>
        <time>2015-10-13T09:09:05Z</time>
      </trkpt>
      <trkpt lat="49.58846" lon="1.75661">
        <ele>248</ele>
        <time>2015-10-13T09:09:14Z</time>
      </trkpt>
      <trkpt lat="49.58847" lon="1.75657">
        <ele>249</ele>
        <time>2015-10-13T09:09:15Z</time>
      </trkpt>
      <trkpt lat="49.5885" lon="1.75632">
        <ele>240</ele>
        <time>2015-10-13T09:09:31Z</time>
      </trkpt>
      <trkpt lat="49.58856" lon="1.75616">
        <ele>242</ele>
        <time>2015-10-13T09:09:37Z</time>
      </trkpt>
      <trkpt lat="49.58862" lon="1.75599">
        <ele>245</ele>
        <time>2015-10-13T09:09:47Z</time>
      </trkpt>
      <trkpt lat="49.58862" lon="1.75599">
        <ele>245</ele>
        <time>2015-10-13T09:09:52Z</time>
      </trkpt>
      <trkpt lat="49.58862" lon="1.75599">
        <ele>245</ele>
        <time>2015-10-13T09:09:53Z</time>
      </trkpt>
      <trkpt lat="49.58869" lon="1.75578">
        <ele>243</ele>
        <time>2015-10-13T09:10:03Z</time>
      </trkpt>
      <trkpt lat="49.58877" lon="1.7555">
        <ele>246</ele>
        <time>2015-10-13T09:10:13Z</time>
      </trkpt>
      <trkpt lat="49.58879" lon="1.75541">
        <ele>245</ele>
        <time>2015-10-13T09:10:25Z</time>
      </trkpt>
      <trkpt lat="49.5889" lon="1.75503">
        <ele>239</ele>
        <time>2015-10-13T09:11:00Z</time>
      </trkpt>
      <trkpt lat="49.58908" lon="1.75459">
        <ele>240</ele>
        <time>2015-10-13T09:11:17Z</time>
      </trkpt>
      <trkpt lat="49.58918" lon="1.75427">
        <ele>240</ele>
        <time>2015-10-13T09:11:32Z</time>
      </trkpt>
      <trkpt lat="49.58926" lon="1.75399">
        <ele>239</ele>
        <time>2015-10-13T09:11:52Z</time>
      </trkpt>
      <trkpt lat="49.58943" lon="1.75373">
        <ele>237</ele>
        <time>2015-10-13T09:12:12Z</time>
      </trkpt>
      <trkpt lat="49.58954" lon="1.75344">
        <ele>235</ele>
        <time>2015-10-13T09:12:32Z</time>
      </trkpt>
      <trkpt lat="49.58974" lon="1.7532">
        <ele>238</ele>
        <time>2015-10-13T09:12:50Z</time>
      </trkpt>
      <trkpt lat="49.58982" lon="1.75309">
        <ele>235</ele>
        <time>2015-10-13T09:13:03Z</time>
      </trkpt>
      <trkpt lat="49.58993" lon="1.75297">
        <ele>233</ele>
        <time>2015-10-13T09:13:14Z</time>
      </trkpt>
      <trkpt lat="49.59003" lon="1.75283">
        <ele>232</ele>
        <time>2015-10-13T09:13:26Z</time>
      </trkpt>
      <trkpt lat="49.5902" lon="1.75273">
        <ele>232</ele>
        <time>2015-10-13T09:13:43Z</time>
      </trkpt>
      <trkpt lat="49.59038" lon="1.75261">
        <ele>230</ele>
        <time>2015-10-13T09:14:02Z</time>
      </trkpt>
      <trkpt lat="49.59056" lon="1.75253">
        <ele>227</ele>
        <time>2015-10-13T09:14:18Z</time>
      </trkpt>
      <trkpt lat="49.59056" lon="1.75253">
        <ele>227</ele>
        <time>2015-10-13T09:14:26Z</time>
      </trkpt>
      <trkpt lat="49.59056" lon="1.75253">
        <ele>227</ele>
        <time>2015-10-13T09:14:27Z</time>
      </trkpt>
      <trkpt lat="49.59066" lon="1.75243">
        <ele>224</ele>
        <time>2015-10-13T09:14:34Z</time>
      </trkpt>
      <trkpt lat="49.59081" lon="1.75247">
        <ele>218</ele>
        <time>2015-10-13T09:14:49Z</time>
      </trkpt>
      <trkpt lat="49.59085" lon="1.75246">
        <ele>219</ele>
        <time>2015-10-13T09:14:52Z</time>
      </trkpt>
      <trkpt lat="49.5909" lon="1.75246">
        <ele>215</ele>
        <time>2015-10-13T09:15:02Z</time>
      </trkpt>
      <trkpt lat="49.59114" lon="1.75265">
        <ele>214</ele>
        <time>2015-10-13T09:15:31Z</time>
      </trkpt>
      <trkpt lat="49.59124" lon="1.75264">
        <ele>214</ele>
        <time>2015-10-13T09:15:36Z</time>
      </trkpt>
      <trkpt lat="49.59133" lon="1.75279">
        <ele>214</ele>
        <time>2015-10-13T09:15:48Z</time>
      </trkpt>
      <trkpt lat="49.59154" lon="1.75289">
        <ele>221</ele>
        <time>2015-10-13T09:16:06Z</time>
      </trkpt>
      <trkpt lat="49.59166" lon="1.753">
        <ele>220</ele>
        <time>2015-10-13T09:16:20Z</time>
      </trkpt>
      <trkpt lat="49.59177" lon="1.75314">
        <ele>221</ele>
        <time>2015-10-13T09:16:31Z</time>
      </trkpt>
      <trkpt lat="49.59182" lon="1.75306">
        <ele>224</ele>
        <time>2015-10-13T09:16:38Z</time>
      </trkpt>
      <trkpt lat="49.59188" lon="1.753">
        <ele>223</ele>
        <time>2015-10-13T09:16:41Z</time>
      </trkpt>
      <trkpt lat="49.59185" lon="1.75279">
        <ele>220</ele>
        <time>2015-10-13T09:16:56Z</time>
      </trkpt>
      <trkpt lat="49.59177" lon="1.75269">
        <ele>217</ele>
        <time>2015-10-13T09:17:07Z</time>
      </trkpt>
      <trkpt lat="49.59166" lon="1.75255">
        <ele>214</ele>
        <time>2015-10-13T09:17:24Z</time>
      </trkpt>
      <trkpt lat="49.59156" lon="1.75243">
        <ele>215</ele>
        <time>2015-10-13T09:17:34Z</time>
      </trkpt>
      <trkpt lat="49.59139" lon="1.75225">
        <ele>213</ele>
        <time>2015-10-13T09:17:49Z</time>
      </trkpt>
      <trkpt lat="49.59126" lon="1.75209">
        <ele>214</ele>
        <time>2015-10-13T09:18:00Z</time>
      </trkpt>
      <trkpt lat="49.59118" lon="1.75202">
        <ele>212</ele>
        <time>2015-10-13T09:18:13Z</time>
      </trkpt>
      <trkpt lat="49.59106" lon="1.75192">
        <ele>208</ele>
        <time>2015-10-13T09:18:28Z</time>
      </trkpt>
      <trkpt lat="49.59089" lon="1.75175">
        <ele>211</ele>
        <time>2015-10-13T09:18:47Z</time>
      </trkpt>
      <trkpt lat="49.59079" lon="1.75163">
        <ele>214</ele>
        <time>2015-10-13T09:18:55Z</time>
      </trkpt>
      <trkpt lat="49.59075" lon="1.75147">
        <ele>213</ele>
        <time>2015-10-13T09:19:07Z</time>
      </trkpt>
      <trkpt lat="49.59071" lon="1.75127">
        <ele>214</ele>
        <time>2015-10-13T09:19:13Z</time>
      </trkpt>
      <trkpt lat="49.59069" lon="1.7511">
        <ele>214</ele>
        <time>2015-10-13T09:19:21Z</time>
      </trkpt>
      <trkpt lat="49.59067" lon="1.75103">
        <ele>215</ele>
        <time>2015-10-13T09:19:26Z</time>
      </trkpt>
      <trkpt lat="49.59069" lon="1.7511">
        <ele>214</ele>
        <time>2015-10-13T09:19:36Z</time>
      </trkpt>
      <trkpt lat="49.5907" lon="1.75086">
        <ele>214</ele>
        <time>2015-10-13T09:19:53Z</time>
      </trkpt>
      <trkpt lat="49.5907" lon="1.75069">
        <ele>213</ele>
        <time>2015-10-13T09:20:00Z</time>
      </trkpt>
      <trkpt lat="49.59069" lon="1.75055">
        <ele>209</ele>
        <time>2015-10-13T09:20:10Z</time>
      </trkpt>
      <trkpt lat="49.59071" lon="1.75003">
        <ele>204</ele>
        <time>2015-10-13T09:20:30Z</time>
      </trkpt>
      <trkpt lat="49.59073" lon="1.74971">
        <ele>200</ele>
        <time>2015-10-13T09:20:47Z</time>
      </trkpt>
      <trkpt lat="49.59063" lon="1.74937">
        <ele>201</ele>
        <time>2015-10-13T09:21:03Z</time>
      </trkpt>
      <trkpt lat="49.59063" lon="1.74915">
        <ele>202</ele>
        <time>2015-10-13T09:21:16Z</time>
      </trkpt>
      <trkpt lat="49.59062" lon="1.74908">
        <ele>200</ele>
        <time>2015-10-13T09:21:20Z</time>
      </trkpt>
      <trkpt lat="49.59071" lon="1.74892">
        <ele>197</ele>
        <time>2015-10-13T09:21:35Z</time>
      </trkpt>
      <trkpt lat="49.5907" lon="1.74863">
        <ele>195</ele>
        <time>2015-10-13T09:21:52Z</time>
      </trkpt>
      <trkpt lat="49.59063" lon="1.74841">
        <ele>201</ele>
        <time>2015-10-13T09:21:57Z</time>
      </trkpt>
      <trkpt lat="49.59061" lon="1.74827">
        <ele>202</ele>
        <time>2015-10-13T09:22:04Z</time>
      </trkpt>
      <trkpt lat="49.59062" lon="1.74802">
        <ele>204</ele>
        <time>2015-10-13T09:22:19Z</time>
      </trkpt>
      <trkpt lat="49.59067" lon="1.74755">
        <ele>203</ele>
        <time>2015-10-13T09:23:02Z</time>
      </trkpt>
      <trkpt lat="49.59062" lon="1.74715">
        <ele>209</ele>
        <time>2015-10-13T09:23:14Z</time>
      </trkpt>
      <trkpt lat="49.59065" lon="1.747">
        <ele>209</ele>
        <time>2015-10-13T09:23:24Z</time>
      </trkpt>
      <trkpt lat="49.59066" lon="1.74674">
        <ele>205</ele>
        <time>2015-10-13T09:23:39Z</time>
      </trkpt>
      <trkpt lat="49.59065" lon="1.74653">
        <ele>206</ele>
        <time>2015-10-13T09:23:51Z</time>
      </trkpt>
      <trkpt lat="49.59057" lon="1.74628">
        <ele>207</ele>
        <time>2015-10-13T09:24:05Z</time>
      </trkpt>
      <trkpt lat="49.59059" lon="1.74611">
        <ele>210</ele>
        <time>2015-10-13T09:24:08Z</time>
      </trkpt>
      <trkpt lat="49.59061" lon="1.7461">
        <ele>209</ele>
        <time>2015-10-13T09:24:20Z</time>
      </trkpt>
      <trkpt lat="49.59066" lon="1.74594">
        <ele>209</ele>
        <time>2015-10-13T09:24:58Z</time>
      </trkpt>
      <trkpt lat="49.59066" lon="1.74585">
        <ele>208</ele>
        <time>2015-10-13T09:25:02Z</time>
      </trkpt>
      <trkpt lat="49.5907" lon="1.74582">
        <ele>208</ele>
        <time>2015-10-13T09:25:10Z</time>
      </trkpt>
      <trkpt lat="49.59066" lon="1.74556">
        <ele>205</ele>
        <time>2015-10-13T09:25:34Z</time>
      </trkpt>
      <trkpt lat="49.59067" lon="1.74528">
        <ele>203</ele>
        <time>2015-10-13T09:25:43Z</time>
      </trkpt>
      <trkpt lat="49.59071" lon="1.74511">
        <ele>202</ele>
        <time>2015-10-13T09:25:54Z</time>
      </trkpt>
      <trkpt lat="49.59073" lon="1.74461">
        <ele>210</ele>
        <time>2015-10-13T09:26:09Z</time>
      </trkpt>
      <trkpt lat="49.59068" lon="1.74444">
        <ele>213</ele>
        <time>2015-10-13T09:26:21Z</time>
      </trkpt>
      <trkpt lat="49.59084" lon="1.74425">
        <ele>215</ele>
        <time>2015-10-13T09:26:29Z</time>
      </trkpt>
      <trkpt lat="49.5909" lon="1.74409">
        <ele>212</ele>
        <time>2015-10-13T09:26:42Z</time>
      </trkpt>
      <trkpt lat="49.59102" lon="1.74394">
        <ele>211</ele>
        <time>2015-10-13T09:26:52Z</time>
      </trkpt>
      <trkpt lat="49.59103" lon="1.74383">
        <ele>209</ele>
        <time>2015-10-13T09:27:02Z</time>
      </trkpt>
      <trkpt lat="49.59127" lon="1.74344">
        <ele>209</ele>
        <time>2015-10-13T09:27:49Z</time>
      </trkpt>
      <trkpt lat="49.59137" lon="1.74335">
        <ele>212</ele>
        <time>2015-10-13T09:28:01Z</time>
      </trkpt>
      <trkpt lat="49.59152" lon="1.74326">
        <ele>214</ele>
        <time>2015-10-13T09:28:11Z</time>
      </trkpt>
      <trkpt lat="49.59152" lon="1.74326">
        <ele>214</ele>
        <time>2015-10-13T09:28:19Z</time>
      </trkpt>
      <trkpt lat="49.59152" lon="1.74326">
        <ele>214</ele>
        <time>2015-10-13T09:28:20Z</time>
      </trkpt>
      <trkpt lat="49.5916" lon="1.74305">
        <ele>217</ele>
        <time>2015-10-13T09:31:32Z</time>
      </trkpt>
      <trkpt lat="49.59177" lon="1.74293">
        <ele>217</ele>
        <time>2015-10-13T09:31:55Z</time>
      </trkpt>
      <trkpt lat="49.59177" lon="1.74293">
        <ele>217</ele>
        <time>2015-10-13T09:32:04Z</time>
      </trkpt>
      <trkpt lat="49.59177" lon="1.74293">
        <ele>217</ele>
        <time>2015-10-13T09:32:06Z</time>
      </trkpt>
      <trkpt lat="49.59187" lon="1.74256">
        <ele>222</ele>
        <time>2015-10-13T09:32:14Z</time>
      </trkpt>
      <trkpt lat="49.59187" lon="1.74256">
        <ele>222</ele>
        <time>2015-10-13T09:32:20Z</time>
      </trkpt>
      <trkpt lat="49.59187" lon="1.74256">
        <ele>222</ele>
        <time>2015-10-13T09:32:22Z</time>
      </trkpt>
      <trkpt lat="49.59199" lon="1.74242">
        <ele>220</ele>
        <time>2015-10-13T09:32:39Z</time>
      </trkpt>
      <trkpt lat="49.59192" lon="1.74215">
        <ele>226</ele>
        <time>2015-10-13T09:32:49Z</time>
      </trkpt>
      <trkpt lat="49.5924" lon="1.74197">
        <ele>224</ele>
        <time>2015-10-13T09:33:01Z</time>
      </trkpt>
      <trkpt lat="49.59233" lon="1.74176">
        <ele>225</ele>
        <time>2015-10-13T09:33:10Z</time>
      </trkpt>
      <trkpt lat="49.59234" lon="1.74155">
        <ele>225</ele>
        <time>2015-10-13T09:33:24Z</time>
      </trkpt>
      <trkpt lat="49.59237" lon="1.74141">
        <ele>228</ele>
        <time>2015-10-13T09:33:31Z</time>
      </trkpt>
      <trkpt lat="49.59245" lon="1.74131">
        <ele>223</ele>
        <time>2015-10-13T09:33:43Z</time>
      </trkpt>
      <trkpt lat="49.59258" lon="1.74113">
        <ele>223</ele>
        <time>2015-10-13T09:33:57Z</time>
      </trkpt>
      <trkpt lat="49.59269" lon="1.74103">
        <ele>226</ele>
        <time>2015-10-13T09:34:04Z</time>
      </trkpt>
      <trkpt lat="49.59269" lon="1.74086">
        <ele>226</ele>
        <time>2015-10-13T09:34:15Z</time>
      </trkpt>
      <trkpt lat="49.5928" lon="1.74082">
        <ele>222</ele>
        <time>2015-10-13T09:34:27Z</time>
      </trkpt>
      <trkpt lat="49.59288" lon="1.7406">
        <ele>224</ele>
        <time>2015-10-13T09:34:43Z</time>
      </trkpt>
      <trkpt lat="49.59302" lon="1.74051">
        <ele>224</ele>
        <time>2015-10-13T09:34:51Z</time>
      </trkpt>
      <trkpt lat="49.59314" lon="1.74038">
        <ele>225</ele>
        <time>2015-10-13T09:35:05Z</time>
      </trkpt>
      <trkpt lat="49.59315" lon="1.74011">
        <ele>224</ele>
        <time>2015-10-13T09:35:21Z</time>
      </trkpt>
      <trkpt lat="49.59321" lon="1.73993">
        <ele>226</ele>
        <time>2015-10-13T09:35:30Z</time>
      </trkpt>
      <trkpt lat="49.59328" lon="1.73977">
        <ele>220</ele>
        <time>2015-10-13T09:35:46Z</time>
      </trkpt>
      <trkpt lat="49.59329" lon="1.73948">
        <ele>221</ele>
        <time>2015-10-13T09:36:01Z</time>
      </trkpt>
      <trkpt lat="49.59323" lon="1.73922">
        <ele>223</ele>
        <time>2015-10-13T09:36:15Z</time>
      </trkpt>
      <trkpt lat="49.59334" lon="1.73895">
        <ele>224</ele>
        <time>2015-10-13T09:36:29Z</time>
      </trkpt>
      <trkpt lat="49.59334" lon="1.73884">
        <ele>226</ele>
        <time>2015-10-13T09:36:31Z</time>
      </trkpt>
      <trkpt lat="49.59332" lon="1.73883">
        <ele>225</ele>
        <time>2015-10-13T09:36:37Z</time>
      </trkpt>
      <trkpt lat="49.59324" lon="1.73862">
        <ele>219</ele>
        <time>2015-10-13T09:41:11Z</time>
      </trkpt>
      <trkpt lat="49.59326" lon="1.73847">
        <ele>221</ele>
        <time>2015-10-13T09:41:17Z</time>
      </trkpt>
      <trkpt lat="49.59328" lon="1.7385">
        <ele>225</ele>
        <time>2015-10-13T09:41:25Z</time>
      </trkpt>
      <trkpt lat="49.59326" lon="1.73874">
        <ele>224</ele>
        <time>2015-10-13T09:43:23Z</time>
      </trkpt>
      <trkpt lat="49.59326" lon="1.73874">
        <ele>224</ele>
        <time>2015-10-13T09:43:28Z</time>
      </trkpt>
      <trkpt lat="49.59326" lon="1.73874">
        <ele>224</ele>
        <time>2015-10-13T09:43:29Z</time>
      </trkpt>
      <trkpt lat="49.59322" lon="1.73829">
        <ele>207</ele>
        <time>2015-10-13T09:45:00Z</time>
      </trkpt>
      <trkpt lat="49.59319" lon="1.73824">
        <ele>208</ele>
        <time>2015-10-13T09:45:04Z</time>
      </trkpt>
      <trkpt lat="49.59329" lon="1.73806">
        <ele>208</ele>
        <time>2015-10-13T09:45:15Z</time>
      </trkpt>
      <trkpt lat="49.59338" lon="1.73762">
        <ele>212</ele>
        <time>2015-10-13T09:45:30Z</time>
      </trkpt>
      <trkpt lat="49.5934" lon="1.73741">
        <ele>215</ele>
        <time>2015-10-13T09:45:42Z</time>
      </trkpt>
      <trkpt lat="49.59338" lon="1.73719">
        <ele>217</ele>
        <time>2015-10-13T09:45:51Z</time>
      </trkpt>
      <trkpt lat="49.59346" lon="1.73711">
        <ele>220</ele>
        <time>2015-10-13T09:46:00Z</time>
      </trkpt>
      <trkpt lat="49.59353" lon="1.73703">
        <ele>220</ele>
        <time>2015-10-13T09:46:04Z</time>
      </trkpt>
      <trkpt lat="49.59357" lon="1.73673">
        <ele>220</ele>
        <time>2015-10-13T09:46:19Z</time>
      </trkpt>
      <trkpt lat="49.5937" lon="1.73672">
        <ele>216</ele>
        <time>2015-10-13T09:46:25Z</time>
      </trkpt>
      <trkpt lat="49.59368" lon="1.73648">
        <ele>211</ele>
        <time>2015-10-13T09:46:38Z</time>
      </trkpt>
      <trkpt lat="49.59373" lon="1.7363">
        <ele>211</ele>
        <time>2015-10-13T09:46:47Z</time>
      </trkpt>
      <trkpt lat="49.59379" lon="1.736">
        <ele>211</ele>
        <time>2015-10-13T09:47:01Z</time>
      </trkpt>
      <trkpt lat="49.5937" lon="1.73547">
        <ele>209</ele>
        <time>2015-10-13T09:47:20Z</time>
      </trkpt>
      <trkpt lat="49.59383" lon="1.73531">
        <ele>211</ele>
        <time>2015-10-13T09:47:35Z</time>
      </trkpt>
      <trkpt lat="49.59382" lon="1.73512">
        <ele>205</ele>
        <time>2015-10-13T09:47:49Z</time>
      </trkpt>
      <trkpt lat="49.59382" lon="1.73473">
        <ele>206</ele>
        <time>2015-10-13T09:48:03Z</time>
      </trkpt>
      <trkpt lat="49.59382" lon="1.73473">
        <ele>206</ele>
        <time>2015-10-13T09:48:08Z</time>
      </trkpt>
      <trkpt lat="49.59382" lon="1.73473">
        <ele>206</ele>
        <time>2015-10-13T09:48:09Z</time>
      </trkpt>
      <trkpt lat="49.59394" lon="1.73452">
        <ele>209</ele>
        <time>2015-10-13T09:48:18Z</time>
      </trkpt>
      <trkpt lat="49.59394" lon="1.73452">
        <ele>209</ele>
        <time>2015-10-13T09:48:24Z</time>
      </trkpt>
      <trkpt lat="49.594" lon="1.73436">
        <ele>209</ele>
        <time>2015-10-13T09:48:30Z</time>
      </trkpt>
      <trkpt lat="49.59407" lon="1.7341">
        <ele>216</ele>
        <time>2015-10-13T09:48:43Z</time>
      </trkpt>
      <trkpt lat="49.59414" lon="1.73392">
        <ele>217</ele>
        <time>2015-10-13T09:48:52Z</time>
      </trkpt>
      <trkpt lat="49.59412" lon="1.7337">
        <ele>216</ele>
        <time>2015-10-13T09:49:01Z</time>
      </trkpt>
      <trkpt lat="49.59412" lon="1.73354">
        <ele>213</ele>
        <time>2015-10-13T09:49:15Z</time>
      </trkpt>
      <trkpt lat="49.59416" lon="1.73322">
        <ele>216</ele>
        <time>2015-10-13T09:49:28Z</time>
      </trkpt>
      <trkpt lat="49.59419" lon="1.73307">
        <ele>216</ele>
        <time>2015-10-13T09:49:35Z</time>
      </trkpt>
      <trkpt lat="49.59424" lon="1.73282">
        <ele>213</ele>
        <time>2015-10-13T09:49:45Z</time>
      </trkpt>
      <trkpt lat="49.59426" lon="1.73274">
        <ele>213</ele>
        <time>2015-10-13T09:49:49Z</time>
      </trkpt>
      <trkpt lat="49.59428" lon="1.73253">
        <ele>216</ele>
        <time>2015-10-13T09:50:01Z</time>
      </trkpt>
      <trkpt lat="49.59433" lon="1.73234">
        <ele>216</ele>
        <time>2015-10-13T09:50:10Z</time>
      </trkpt>
      <trkpt lat="49.59436" lon="1.73217">
        <ele>212</ele>
        <time>2015-10-13T09:50:22Z</time>
      </trkpt>
      <trkpt lat="49.59439" lon="1.73191">
        <ele>212</ele>
        <time>2015-10-13T09:50:36Z</time>
      </trkpt>
      <trkpt lat="49.59436" lon="1.73173">
        <ele>207</ele>
        <time>2015-10-13T09:50:46Z</time>
      </trkpt>
      <trkpt lat="49.59434" lon="1.73166">
        <ele>205</ele>
        <time>2015-10-13T09:50:50Z</time>
      </trkpt>
      <trkpt lat="49.59442" lon="1.73152">
        <ele>204</ele>
        <time>2015-10-13T09:50:59Z</time>
      </trkpt>
      <trkpt lat="49.59442" lon="1.73142">
        <ele>205</ele>
        <time>2015-10-13T09:51:04Z</time>
      </trkpt>
      <trkpt lat="49.59452" lon="1.73131">
        <ele>203</ele>
        <time>2015-10-13T09:51:14Z</time>
      </trkpt>
      <trkpt lat="49.59455" lon="1.73116">
        <ele>203</ele>
        <time>2015-10-13T09:51:20Z</time>
      </trkpt>
      <trkpt lat="49.59464" lon="1.73099">
        <ele>203</ele>
        <time>2015-10-13T09:51:31Z</time>
      </trkpt>
      <trkpt lat="49.59476" lon="1.73065">
        <ele>201</ele>
        <time>2015-10-13T09:51:47Z</time>
      </trkpt>
      <trkpt lat="49.59493" lon="1.73037">
        <ele>206</ele>
        <time>2015-10-13T09:52:02Z</time>
      </trkpt>
      <trkpt lat="49.59505" lon="1.73018">
        <ele>210</ele>
        <time>2015-10-13T09:52:16Z</time>
      </trkpt>
      <trkpt lat="49.59514" lon="1.72998">
        <ele>209</ele>
        <time>2015-10-13T09:52:30Z</time>
      </trkpt>
      <trkpt lat="49.59525" lon="1.72972">
        <ele>209</ele>
        <time>2015-10-13T09:52:46Z</time>
      </trkpt>
      <trkpt lat="49.59536" lon="1.72943">
        <ele>208</ele>
        <time>2015-10-13T09:53:03Z</time>
      </trkpt>
      <trkpt lat="49.59549" lon="1.7292">
        <ele>212</ele>
        <time>2015-10-13T09:53:15Z</time>
      </trkpt>
      <trkpt lat="49.59553" lon="1.72902">
        <ele>209</ele>
        <time>2015-10-13T09:53:26Z</time>
      </trkpt>
      <trkpt lat="49.59562" lon="1.72876">
        <ele>211</ele>
        <time>2015-10-13T09:53:40Z</time>
      </trkpt>
      <trkpt lat="49.59573" lon="1.72853">
        <ele>215</ele>
        <time>2015-10-13T09:53:53Z</time>
      </trkpt>
      <trkpt lat="49.59581" lon="1.72832">
        <ele>212</ele>
        <time>2015-10-13T09:54:09Z</time>
      </trkpt>
      <trkpt lat="49.5959" lon="1.72808">
        <ele>210</ele>
        <time>2015-10-13T09:54:25Z</time>
      </trkpt>
      <trkpt lat="49.59604" lon="1.72775">
        <ele>210</ele>
        <time>2015-10-13T09:54:43Z</time>
      </trkpt>
      <trkpt lat="49.59611" lon="1.72752">
        <ele>210</ele>
        <time>2015-10-13T09:54:55Z</time>
      </trkpt>
      <trkpt lat="49.59625" lon="1.72727">
        <ele>212</ele>
        <time>2015-10-13T09:55:11Z</time>
      </trkpt>
      <trkpt lat="49.59637" lon="1.72713">
        <ele>211</ele>
        <time>2015-10-13T09:55:21Z</time>
      </trkpt>
      <trkpt lat="49.59641" lon="1.72687">
        <ele>209</ele>
        <time>2015-10-13T09:55:34Z</time>
      </trkpt>
      <trkpt lat="49.59663" lon="1.7266">
        <ele>215</ele>
        <time>2015-10-13T09:55:52Z</time>
      </trkpt>
      <trkpt lat="49.59663" lon="1.7266">
        <ele>215</ele>
        <time>2015-10-13T09:55:57Z</time>
      </trkpt>
      <trkpt lat="49.59669" lon="1.72644">
        <ele>217</ele>
        <time>2015-10-13T09:56:02Z</time>
      </trkpt>
      <trkpt lat="49.59675" lon="1.7263">
        <ele>214</ele>
        <time>2015-10-13T09:56:11Z</time>
      </trkpt>
      <trkpt lat="49.59687" lon="1.72623">
        <ele>214</ele>
        <time>2015-10-13T09:56:19Z</time>
      </trkpt>
      <trkpt lat="49.59698" lon="1.72601">
        <ele>209</ele>
        <time>2015-10-13T09:56:32Z</time>
      </trkpt>
      <trkpt lat="49.59707" lon="1.72575">
        <ele>203</ele>
        <time>2015-10-13T09:56:47Z</time>
      </trkpt>
      <trkpt lat="49.59721" lon="1.7255">
        <ele>205</ele>
        <time>2015-10-13T09:57:02Z</time>
      </trkpt>
      <trkpt lat="49.59721" lon="1.7255">
        <ele>205</ele>
        <time>2015-10-13T09:57:09Z</time>
      </trkpt>
      <trkpt lat="49.59731" lon="1.7254">
        <ele>207</ele>
        <time>2015-10-13T09:57:13Z</time>
      </trkpt>
      <trkpt lat="49.59742" lon="1.72521">
        <ele>209</ele>
        <time>2015-10-13T09:57:26Z</time>
      </trkpt>
      <trkpt lat="49.59751" lon="1.72503">
        <ele>209</ele>
        <time>2015-10-13T09:57:38Z</time>
      </trkpt>
      <trkpt lat="49.59764" lon="1.72483">
        <ele>211</ele>
        <time>2015-10-13T09:57:51Z</time>
      </trkpt>
      <trkpt lat="49.59764" lon="1.72483">
        <ele>211</ele>
        <time>2015-10-13T09:57:56Z</time>
      </trkpt>
      <trkpt lat="49.59764" lon="1.72483">
        <ele>211</ele>
        <time>2015-10-13T09:57:57Z</time>
      </trkpt>
      <trkpt lat="49.59778" lon="1.72463">
        <ele>208</ele>
        <time>2015-10-13T09:58:08Z</time>
      </trkpt>
      <trkpt lat="49.59781" lon="1.72448">
        <ele>207</ele>
        <time>2015-10-13T09:58:19Z</time>
      </trkpt>
      <trkpt lat="49.59796" lon="1.72413">
        <ele>215</ele>
        <time>2015-10-13T09:58:35Z</time>
      </trkpt>
      <trkpt lat="49.5981" lon="1.72388">
        <ele>216</ele>
        <time>2015-10-13T09:58:50Z</time>
      </trkpt>
      <trkpt lat="49.59819" lon="1.72367">
        <ele>216</ele>
        <time>2015-10-13T09:59:01Z</time>
      </trkpt>
      <trkpt lat="49.59835" lon="1.72345">
        <ele>217</ele>
        <time>2015-10-13T09:59:14Z</time>
      </trkpt>
      <trkpt lat="49.59843" lon="1.72332">
        <ele>221</ele>
        <time>2015-10-13T09:59:20Z</time>
      </trkpt>
      <trkpt lat="49.59849" lon="1.72317">
        <ele>217</ele>
        <time>2015-10-13T09:59:35Z</time>
      </trkpt>
      <trkpt lat="49.59855" lon="1.72289">
        <ele>219</ele>
        <time>2015-10-13T09:59:50Z</time>
      </trkpt>
      <trkpt lat="49.59858" lon="1.72271">
        <ele>219</ele>
        <time>2015-10-13T09:59:59Z</time>
      </trkpt>
      <trkpt lat="49.59866" lon="1.72244">
        <ele>218</ele>
        <time>2015-10-13T10:00:12Z</time>
      </trkpt>
      <trkpt lat="49.59874" lon="1.72225">
        <ele>213</ele>
        <time>2015-10-13T10:00:26Z</time>
      </trkpt>
      <trkpt lat="49.59884" lon="1.72203">
        <ele>214</ele>
        <time>2015-10-13T10:00:38Z</time>
      </trkpt>
      <trkpt lat="49.5989" lon="1.72189">
        <ele>213</ele>
        <time>2015-10-13T10:00:48Z</time>
      </trkpt>
      <trkpt lat="49.59901" lon="1.72165">
        <ele>211</ele>
        <time>2015-10-13T10:01:05Z</time>
      </trkpt>
      <trkpt lat="49.59906" lon="1.72149">
        <ele>210</ele>
        <time>2015-10-13T10:01:14Z</time>
      </trkpt>
      <trkpt lat="49.59916" lon="1.72118">
        <ele>212</ele>
        <time>2015-10-13T10:01:29Z</time>
      </trkpt>
      <trkpt lat="49.5992" lon="1.72087">
        <ele>208</ele>
        <time>2015-10-13T10:01:46Z</time>
      </trkpt>
      <trkpt lat="49.59928" lon="1.7206">
        <ele>209</ele>
        <time>2015-10-13T10:02:00Z</time>
      </trkpt>
      <trkpt lat="49.59934" lon="1.72044">
        <ele>204</ele>
        <time>2015-10-13T10:02:11Z</time>
      </trkpt>
      <trkpt lat="49.59941" lon="1.72024">
        <ele>206</ele>
        <time>2015-10-13T10:02:21Z</time>
      </trkpt>
      <trkpt lat="49.59943" lon="1.72023">
        <ele>209</ele>
        <time>2015-10-13T10:02:29Z</time>
      </trkpt>
      <trkpt lat="49.59949" lon="1.71998">
        <ele>205</ele>
        <time>2015-10-13T10:04:53Z</time>
      </trkpt>
      <trkpt lat="49.59958" lon="1.7197">
        <ele>208</ele>
        <time>2015-10-13T10:05:10Z</time>
      </trkpt>
      <trkpt lat="49.59976" lon="1.71941">
        <ele>215</ele>
        <time>2015-10-13T10:05:28Z</time>
      </trkpt>
      <trkpt lat="49.59979" lon="1.71931">
        <ele>214</ele>
        <time>2015-10-13T10:05:37Z</time>
      </trkpt>
      <trkpt lat="49.59989" lon="1.71914">
        <ele>209</ele>
        <time>2015-10-13T10:05:55Z</time>
      </trkpt>
      <trkpt lat="49.60002" lon="1.71906">
        <ele>207</ele>
        <time>2015-10-13T10:06:07Z</time>
      </trkpt>
      <trkpt lat="49.60023" lon="1.71889">
        <ele>209</ele>
        <time>2015-10-13T10:06:25Z</time>
      </trkpt>
      <trkpt lat="49.60031" lon="1.71873">
        <ele>206</ele>
        <time>2015-10-13T10:06:39Z</time>
      </trkpt>
      <trkpt lat="49.6004" lon="1.71855">
        <ele>204</ele>
        <time>2015-10-13T10:06:55Z</time>
      </trkpt>
      <trkpt lat="49.60056" lon="1.71823">
        <ele>204</ele>
        <time>2015-10-13T10:07:15Z</time>
      </trkpt>
      <trkpt lat="49.60064" lon="1.7181">
        <ele>203</ele>
        <time>2015-10-13T10:07:25Z</time>
      </trkpt>
      <trkpt lat="49.60069" lon="1.71782">
        <ele>204</ele>
        <time>2015-10-13T10:07:42Z</time>
      </trkpt>
      <trkpt lat="49.60072" lon="1.7177">
        <ele>202</ele>
        <time>2015-10-13T10:07:53Z</time>
      </trkpt>
      <trkpt lat="49.60081" lon="1.71751">
        <ele>202</ele>
        <time>2015-10-13T10:08:09Z</time>
      </trkpt>
      <trkpt lat="49.6008" lon="1.71724">
        <ele>200</ele>
        <time>2015-10-13T10:08:23Z</time>
      </trkpt>
      <trkpt lat="49.60077" lon="1.71713">
        <ele>201</ele>
        <time>2015-10-13T10:08:33Z</time>
      </trkpt>
      <trkpt lat="49.60071" lon="1.71689">
        <ele>205</ele>
        <time>2015-10-13T10:08:50Z</time>
      </trkpt>
      <trkpt lat="49.60071" lon="1.71689">
        <ele>205</ele>
        <time>2015-10-13T10:11:18Z</time>
      </trkpt>
      <trkpt lat="49.6008" lon="1.71704">
        <ele>203</ele>
        <time>2015-10-13T10:49:52Z</time>
      </trkpt>
      <trkpt lat="49.6008" lon="1.71704">
        <ele>203</ele>
        <time>2015-10-13T10:49:59Z</time>
      </trkpt>
      <trkpt lat="49.60085" lon="1.71723">
        <ele>210</ele>
        <time>2015-10-13T10:50:09Z</time>
      </trkpt>
      <trkpt lat="49.60111" lon="1.7169">
        <ele>204</ele>
        <time>2015-10-13T10:51:12Z</time>
      </trkpt>
      <trkpt lat="49.60119" lon="1.71665">
        <ele>204</ele>
        <time>2015-10-13T10:51:24Z</time>
      </trkpt>
      <trkpt lat="49.60122" lon="1.71646">
        <ele>204</ele>
        <time>2015-10-13T10:51:34Z</time>
      </trkpt>
      <trkpt lat="49.60133" lon="1.71632">
        <ele>199</ele>
        <time>2015-10-13T10:51:50Z</time>
      </trkpt>
      <trkpt lat="49.60136" lon="1.7161">
        <ele>205</ele>
        <time>2015-10-13T10:52:09Z</time>
      </trkpt>
      <trkpt lat="49.60145" lon="1.71586">
        <ele>211</ele>
        <time>2015-10-13T10:52:20Z</time>
      </trkpt>
      <trkpt lat="49.60145" lon="1.71586">
        <ele>211</ele>
        <time>2015-10-13T10:52:25Z</time>
      </trkpt>
      <trkpt lat="49.60145" lon="1.71586">
        <ele>211</ele>
        <time>2015-10-13T10:52:26Z</time>
      </trkpt>
      <trkpt lat="49.60152" lon="1.71621">
        <ele>205</ele>
        <time>2015-10-13T10:54:01Z</time>
      </trkpt>
      <trkpt lat="49.60158" lon="1.71623">
        <ele>205</ele>
        <time>2015-10-13T10:54:05Z</time>
      </trkpt>
      <trkpt lat="49.60165" lon="1.71622">
        <ele>207</ele>
        <time>2015-10-13T10:54:20Z</time>
      </trkpt>
      <trkpt lat="49.60177" lon="1.71607">
        <ele>208</ele>
        <time>2015-10-13T10:54:32Z</time>
      </trkpt>
      <trkpt lat="49.60189" lon="1.71586">
        <ele>211</ele>
        <time>2015-10-13T10:54:51Z</time>
      </trkpt>
      <trkpt lat="49.602" lon="1.71564">
        <ele>212</ele>
        <time>2015-10-13T10:55:05Z</time>
      </trkpt>
      <trkpt lat="49.60209" lon="1.71546">
        <ele>215</ele>
        <time>2015-10-13T10:55:19Z</time>
      </trkpt>
      <trkpt lat="49.60218" lon="1.71532">
        <ele>217</ele>
        <time>2015-10-13T10:55:31Z</time>
      </trkpt>
      <trkpt lat="49.60229" lon="1.71514">
        <ele>217</ele>
        <time>2015-10-13T10:55:46Z</time>
      </trkpt>
      <trkpt lat="49.60245" lon="1.71497">
        <ele>217</ele>
        <time>2015-10-13T10:56:04Z</time>
      </trkpt>
      <trkpt lat="49.60243" lon="1.71476">
        <ele>220</ele>
        <time>2015-10-13T10:56:13Z</time>
      </trkpt>
      <trkpt lat="49.60245" lon="1.71478">
        <ele>221</ele>
        <time>2015-10-13T10:56:22Z</time>
      </trkpt>
      <trkpt lat="49.60272" lon="1.71451">
        <ele>219</ele>
        <time>2015-10-13T10:57:41Z</time>
      </trkpt>
      <trkpt lat="49.60276" lon="1.71446">
        <ele>220</ele>
        <time>2015-10-13T10:57:44Z</time>
      </trkpt>
      <trkpt lat="49.60277" lon="1.71433">
        <ele>219</ele>
        <time>2015-10-13T10:57:57Z</time>
      </trkpt>
      <trkpt lat="49.60294" lon="1.71421">
        <ele>226</ele>
        <time>2015-10-13T10:58:16Z</time>
      </trkpt>
      <trkpt lat="49.60303" lon="1.71402">
        <ele>225</ele>
        <time>2015-10-13T10:58:31Z</time>
      </trkpt>
      <trkpt lat="49.60303" lon="1.71402">
        <ele>225</ele>
        <time>2015-10-13T10:58:38Z</time>
      </trkpt>
      <trkpt lat="49.60314" lon="1.71404">
        <ele>227</ele>
        <time>2015-10-13T10:58:45Z</time>
      </trkpt>
      <trkpt lat="49.60319" lon="1.71401">
        <ele>228</ele>
        <time>2015-10-13T10:58:50Z</time>
      </trkpt>
      <trkpt lat="49.60325" lon="1.7139">
        <ele>226</ele>
        <time>2015-10-13T10:59:05Z</time>
      </trkpt>
      <trkpt lat="49.60325" lon="1.7139">
        <ele>226</ele>
        <time>2015-10-13T10:59:12Z</time>
      </trkpt>
      <trkpt lat="49.60325" lon="1.7139">
        <ele>226</ele>
        <time>2015-10-13T10:59:13Z</time>
      </trkpt>
      <trkpt lat="49.60341" lon="1.71383">
        <ele>232</ele>
        <time>2015-10-13T10:59:41Z</time>
      </trkpt>
      <trkpt lat="49.60353" lon="1.71376">
        <ele>237</ele>
        <time>2015-10-13T10:59:52Z</time>
      </trkpt>
      <trkpt lat="49.60365" lon="1.71382">
        <ele>237</ele>
        <time>2015-10-13T11:00:09Z</time>
      </trkpt>
      <trkpt lat="49.60384" lon="1.7141">
        <ele>242</ele>
        <time>2015-10-13T11:01:00Z</time>
      </trkpt>
      <trkpt lat="49.60384" lon="1.7141">
        <ele>242</ele>
        <time>2015-10-13T11:03:11Z</time>
      </trkpt>
      <trkpt lat="49.60371" lon="1.71375">
        <ele>244</ele>
        <time>2015-10-13T11:03:48Z</time>
      </trkpt>
      <trkpt lat="49.60386" lon="1.71362">
        <ele>243</ele>
        <time>2015-10-13T11:03:59Z</time>
      </trkpt>
      <trkpt lat="49.60399" lon="1.71354">
        <ele>241</ele>
        <time>2015-10-13T11:04:08Z</time>
      </trkpt>
      <trkpt lat="49.60405" lon="1.71341">
        <ele>236</ele>
        <time>2015-10-13T11:04:25Z</time>
      </trkpt>
      <trkpt lat="49.60418" lon="1.71333">
        <ele>232</ele>
        <time>2015-10-13T11:04:40Z</time>
      </trkpt>
      <trkpt lat="49.60429" lon="1.71285">
        <ele>237</ele>
        <time>2015-10-13T11:05:54Z</time>
      </trkpt>
      <trkpt lat="49.60432" lon="1.7127">
        <ele>238</ele>
        <time>2015-10-13T11:06:00Z</time>
      </trkpt>
      <trkpt lat="49.60431" lon="1.71236">
        <ele>238</ele>
        <time>2015-10-13T11:06:16Z</time>
      </trkpt>
      <trkpt lat="49.60445" lon="1.71228">
        <ele>232</ele>
        <time>2015-10-13T11:06:37Z</time>
      </trkpt>
      <trkpt lat="49.60448" lon="1.71206">
        <ele>233</ele>
        <time>2015-10-13T11:06:44Z</time>
      </trkpt>
      <trkpt lat="49.60447" lon="1.7119">
        <ele>230</ele>
        <time>2015-10-13T11:06:57Z</time>
      </trkpt>
      <trkpt lat="49.60464" lon="1.71179">
        <ele>229</ele>
        <time>2015-10-13T11:07:08Z</time>
      </trkpt>
      <trkpt lat="49.60464" lon="1.71179">
        <ele>229</ele>
        <time>2015-10-13T11:07:14Z</time>
      </trkpt>
      <trkpt lat="49.60464" lon="1.71179">
        <ele>229</ele>
        <time>2015-10-13T11:07:15Z</time>
      </trkpt>
      <trkpt lat="49.60479" lon="1.71156">
        <ele>233</ele>
        <time>2015-10-13T11:08:17Z</time>
      </trkpt>
      <trkpt lat="49.60492" lon="1.71144">
        <ele>238</ele>
        <time>2015-10-13T11:08:26Z</time>
      </trkpt>
      <trkpt lat="49.605" lon="1.71137">
        <ele>237</ele>
        <time>2015-10-13T11:08:39Z</time>
      </trkpt>
      <trkpt lat="49.60511" lon="1.7112">
        <ele>236</ele>
        <time>2015-10-13T11:08:56Z</time>
      </trkpt>
      <trkpt lat="49.60517" lon="1.71107">
        <ele>237</ele>
        <time>2015-10-13T11:09:06Z</time>
      </trkpt>
      <trkpt lat="49.60521" lon="1.71101">
        <ele>239</ele>
        <time>2015-10-13T11:09:23Z</time>
      </trkpt>
      <trkpt lat="49.60521" lon="1.71101">
        <ele>239</ele>
        <time>2015-10-13T11:13:29Z</time>
      </trkpt>
      <trkpt lat="49.60543" lon="1.71101">
        <ele>247</ele>
        <time>2015-10-13T11:13:36Z</time>
      </trkpt>
      <trkpt lat="49.60549" lon="1.71117">
        <ele>250</ele>
        <time>2015-10-13T11:13:44Z</time>
      </trkpt>
      <trkpt lat="49.60559" lon="1.71123">
        <ele>252</ele>
        <time>2015-10-13T11:14:02Z</time>
      </trkpt>
      <trkpt lat="49.60578" lon="1.71131">
        <ele>251</ele>
        <time>2015-10-13T11:14:20Z</time>
      </trkpt>
      <trkpt lat="49.60594" lon="1.7114">
        <ele>252</ele>
        <time>2015-10-13T11:14:33Z</time>
      </trkpt>
      <trkpt lat="49.60609" lon="1.71154">
        <ele>251</ele>
        <time>2015-10-13T11:14:49Z</time>
      </trkpt>
      <trkpt lat="49.60623" lon="1.71166">
        <ele>252</ele>
        <time>2015-10-13T11:15:02Z</time>
      </trkpt>
      <trkpt lat="49.60636" lon="1.71188">
        <ele>248</ele>
        <time>2015-10-13T11:15:17Z</time>
      </trkpt>
      <trkpt lat="49.60656" lon="1.71194">
        <ele>253</ele>
        <time>2015-10-13T11:15:32Z</time>
      </trkpt>
      <trkpt lat="49.6067" lon="1.71211">
        <ele>250</ele>
        <time>2015-10-13T11:15:50Z</time>
      </trkpt>
      <trkpt lat="49.60687" lon="1.71227">
        <ele>247</ele>
        <time>2015-10-13T11:16:06Z</time>
      </trkpt>
      <trkpt lat="49.60702" lon="1.71243">
        <ele>241</ele>
        <time>2015-10-13T11:16:25Z</time>
      </trkpt>
      <trkpt lat="49.60716" lon="1.71255">
        <ele>241</ele>
        <time>2015-10-13T11:16:40Z</time>
      </trkpt>
      <trkpt lat="49.6073" lon="1.71276">
        <ele>245</ele>
        <time>2015-10-13T11:16:56Z</time>
      </trkpt>
      <trkpt lat="49.60738" lon="1.71284">
        <ele>246</ele>
        <time>2015-10-13T11:17:04Z</time>
      </trkpt>
      <trkpt lat="49.60738" lon="1.71284">
        <ele>246</ele>
        <time>2015-10-13T11:17:12Z</time>
      </trkpt>
      <trkpt lat="49.60738" lon="1.71284">
        <ele>246</ele>
        <time>2015-10-13T11:17:14Z</time>
      </trkpt>
      <trkpt lat="49.60752" lon="1.7129">
        <ele>247</ele>
        <time>2015-10-13T11:17:30Z</time>
      </trkpt>
      <trkpt lat="49.60764" lon="1.713">
        <ele>249</ele>
        <time>2015-10-13T11:17:42Z</time>
      </trkpt>
      <trkpt lat="49.60775" lon="1.71312">
        <ele>246</ele>
        <time>2015-10-13T11:17:58Z</time>
      </trkpt>
      <trkpt lat="49.60787" lon="1.71315">
        <ele>248</ele>
        <time>2015-10-13T11:18:07Z</time>
      </trkpt>
      <trkpt lat="49.60806" lon="1.71322">
        <ele>249</ele>
        <time>2015-10-13T11:18:23Z</time>
      </trkpt>
      <trkpt lat="49.60817" lon="1.71327">
        <ele>249</ele>
        <time>2015-10-13T11:18:35Z</time>
      </trkpt>
      <trkpt lat="49.60826" lon="1.71336">
        <ele>249</ele>
        <time>2015-10-13T11:18:46Z</time>
      </trkpt>
      <trkpt lat="49.60837" lon="1.71344">
        <ele>249</ele>
        <time>2015-10-13T11:18:56Z</time>
      </trkpt>
      <trkpt lat="49.60854" lon="1.7136">
        <ele>249</ele>
        <time>2015-10-13T11:19:11Z</time>
      </trkpt>
      <trkpt lat="49.60868" lon="1.71362">
        <ele>248</ele>
        <time>2015-10-13T11:19:24Z</time>
      </trkpt>
      <trkpt lat="49.60885" lon="1.71368">
        <ele>248</ele>
        <time>2015-10-13T11:19:39Z</time>
      </trkpt>
      <trkpt lat="49.60907" lon="1.71383">
        <ele>245</ele>
        <time>2015-10-13T11:19:59Z</time>
      </trkpt>
      <trkpt lat="49.60925" lon="1.71385">
        <ele>253</ele>
        <time>2015-10-13T11:20:11Z</time>
      </trkpt>
      <trkpt lat="49.60932" lon="1.71388">
        <ele>252</ele>
        <time>2015-10-13T11:20:21Z</time>
      </trkpt>
      <trkpt lat="49.60938" lon="1.71393">
        <ele>250</ele>
        <time>2015-10-13T11:20:28Z</time>
      </trkpt>
      <trkpt lat="49.60948" lon="1.71402">
        <ele>249</ele>
        <time>2015-10-13T11:20:38Z</time>
      </trkpt>
      <trkpt lat="49.60967" lon="1.71419">
        <ele>248</ele>
        <time>2015-10-13T11:20:59Z</time>
      </trkpt>
      <trkpt lat="49.60976" lon="1.71419">
        <ele>249</ele>
        <time>2015-10-13T11:21:10Z</time>
      </trkpt>
      <trkpt lat="49.60967" lon="1.71419">
        <ele>248</ele>
        <time>2015-10-13T11:21:20Z</time>
      </trkpt>
      <trkpt lat="49.60992" lon="1.71433">
        <ele>244</ele>
        <time>2015-10-13T11:22:10Z</time>
      </trkpt>
      <trkpt lat="49.60992" lon="1.71433">
        <ele>244</ele>
        <time>2015-10-13T11:22:18Z</time>
      </trkpt>
      <trkpt lat="49.60992" lon="1.71433">
        <ele>244</ele>
        <time>2015-10-13T11:22:19Z</time>
      </trkpt>
      <trkpt lat="49.61004" lon="1.71439">
        <ele>242</ele>
        <time>2015-10-13T11:22:27Z</time>
      </trkpt>
      <trkpt lat="49.6102" lon="1.71458">
        <ele>246</ele>
        <time>2015-10-13T11:22:44Z</time>
      </trkpt>
      <trkpt lat="49.61029" lon="1.71479">
        <ele>247</ele>
        <time>2015-10-13T11:22:53Z</time>
      </trkpt>
      <trkpt lat="49.61039" lon="1.71488">
        <ele>245</ele>
        <time>2015-10-13T11:23:03Z</time>
      </trkpt>
      <trkpt lat="49.61061" lon="1.71512">
        <ele>245</ele>
        <time>2015-10-13T11:23:23Z</time>
      </trkpt>
      <trkpt lat="49.61072" lon="1.71522">
        <ele>243</ele>
        <time>2015-10-13T11:23:35Z</time>
      </trkpt>
      <trkpt lat="49.61094" lon="1.71538">
        <ele>243</ele>
        <time>2015-10-13T11:23:53Z</time>
      </trkpt>
      <trkpt lat="49.61113" lon="1.71534">
        <ele>236</ele>
        <time>2015-10-13T11:24:08Z</time>
      </trkpt>
      <trkpt lat="49.61124" lon="1.71537">
        <ele>235</ele>
        <time>2015-10-13T11:24:24Z</time>
      </trkpt>
      <trkpt lat="49.61142" lon="1.71539">
        <ele>229</ele>
        <time>2015-10-13T11:24:35Z</time>
      </trkpt>
      <trkpt lat="49.61156" lon="1.71538">
        <ele>232</ele>
        <time>2015-10-13T11:24:47Z</time>
      </trkpt>
      <trkpt lat="49.61166" lon="1.71531">
        <ele>233</ele>
        <time>2015-10-13T11:24:59Z</time>
      </trkpt>
      <trkpt lat="49.61183" lon="1.71529">
        <ele>233</ele>
        <time>2015-10-13T11:25:13Z</time>
      </trkpt>
      <trkpt lat="49.61202" lon="1.71533">
        <ele>232</ele>
        <time>2015-10-13T11:25:30Z</time>
      </trkpt>
      <trkpt lat="49.61207" lon="1.71534">
        <ele>232</ele>
        <time>2015-10-13T11:25:31Z</time>
      </trkpt>
      <trkpt lat="49.61219" lon="1.71537">
        <ele>228</ele>
        <time>2015-10-13T11:25:50Z</time>
      </trkpt>
      <trkpt lat="49.61238" lon="1.71552">
        <ele>233</ele>
        <time>2015-10-13T11:26:04Z</time>
      </trkpt>
      <trkpt lat="49.61238" lon="1.71552">
        <ele>233</ele>
        <time>2015-10-13T11:26:11Z</time>
      </trkpt>
      <trkpt lat="49.6125" lon="1.71561">
        <ele>241</ele>
        <time>2015-10-13T11:26:14Z</time>
      </trkpt>
      <trkpt lat="49.6125" lon="1.71561">
        <ele>241</ele>
        <time>2015-10-13T11:26:21Z</time>
      </trkpt>
      <trkpt lat="49.6125" lon="1.71561">
        <ele>241</ele>
        <time>2015-10-13T11:26:23Z</time>
      </trkpt>
      <trkpt lat="49.61264" lon="1.71569">
        <ele>236</ele>
        <time>2015-10-13T11:26:31Z</time>
      </trkpt>
      <trkpt lat="49.61281" lon="1.71578">
        <ele>237</ele>
        <time>2015-10-13T11:26:48Z</time>
      </trkpt>
      <trkpt lat="49.61303" lon="1.71582">
        <ele>239</ele>
        <time>2015-10-13T11:27:08Z</time>
      </trkpt>
      <trkpt lat="49.61313" lon="1.71572">
        <ele>238</ele>
        <time>2015-10-13T11:27:22Z</time>
      </trkpt>
      <trkpt lat="49.61314" lon="1.71567">
        <ele>237</ele>
        <time>2015-10-13T11:27:28Z</time>
      </trkpt>
      <trkpt lat="49.61312" lon="1.71561">
        <ele>240</ele>
        <time>2015-10-13T11:27:39Z</time>
      </trkpt>
      <trkpt lat="49.61316" lon="1.71532">
        <ele>239</ele>
        <time>2015-10-13T11:27:58Z</time>
      </trkpt>
      <trkpt lat="49.61316" lon="1.71508">
        <ele>246</ele>
        <time>2015-10-13T11:28:15Z</time>
      </trkpt>
      <trkpt lat="49.61316" lon="1.71484">
        <ele>248</ele>
        <time>2015-10-13T11:28:26Z</time>
      </trkpt>
      <trkpt lat="49.61324" lon="1.71461">
        <ele>248</ele>
        <time>2015-10-13T11:28:43Z</time>
      </trkpt>
      <trkpt lat="49.61324" lon="1.71445">
        <ele>246</ele>
        <time>2015-10-13T11:28:50Z</time>
      </trkpt>
      <trkpt lat="49.61326" lon="1.71431">
        <ele>246</ele>
        <time>2015-10-13T11:29:02Z</time>
      </trkpt>
      <trkpt lat="49.61323" lon="1.71415">
        <ele>242</ele>
        <time>2015-10-13T11:29:12Z</time>
      </trkpt>
      <trkpt lat="49.61322" lon="1.71407">
        <ele>244</ele>
        <time>2015-10-13T11:29:16Z</time>
      </trkpt>
      <trkpt lat="49.61321" lon="1.71395">
        <ele>246</ele>
        <time>2015-10-13T11:29:25Z</time>
      </trkpt>
      <trkpt lat="49.61322" lon="1.71364">
        <ele>246</ele>
        <time>2015-10-13T11:29:44Z</time>
      </trkpt>
      <trkpt lat="49.6132" lon="1.71355">
        <ele>247</ele>
        <time>2015-10-13T11:29:49Z</time>
      </trkpt>
      <trkpt lat="49.61323" lon="1.71344">
        <ele>247</ele>
        <time>2015-10-13T11:29:58Z</time>
      </trkpt>
      <trkpt lat="49.61319" lon="1.71326">
        <ele>250</ele>
        <time>2015-10-13T11:30:06Z</time>
      </trkpt>
      <trkpt lat="49.61315" lon="1.7131">
        <ele>249</ele>
        <time>2015-10-13T11:30:14Z</time>
      </trkpt>
      <trkpt lat="49.61309" lon="1.71289">
        <ele>249</ele>
        <time>2015-10-13T11:30:27Z</time>
      </trkpt>
      <trkpt lat="49.61298" lon="1.71256">
        <ele>251</ele>
        <time>2015-10-13T11:30:41Z</time>
      </trkpt>
      <trkpt lat="49.61298" lon="1.71256">
        <ele>251</ele>
        <time>2015-10-13T11:30:49Z</time>
      </trkpt>
      <trkpt lat="49.61293" lon="1.71238">
        <ele>249</ele>
        <time>2015-10-13T11:30:57Z</time>
      </trkpt>
      <trkpt lat="49.61282" lon="1.71198">
        <ele>249</ele>
        <time>2015-10-13T11:31:14Z</time>
      </trkpt>
      <trkpt lat="49.61278" lon="1.71184">
        <ele>251</ele>
        <time>2015-10-13T11:31:23Z</time>
      </trkpt>
      <trkpt lat="49.6127" lon="1.71154">
        <ele>256</ele>
        <time>2015-10-13T11:31:41Z</time>
      </trkpt>
      <trkpt lat="49.6127" lon="1.71131">
        <ele>252</ele>
        <time>2015-10-13T11:31:56Z</time>
      </trkpt>
      <trkpt lat="49.61269" lon="1.71108">
        <ele>250</ele>
        <time>2015-10-13T11:32:13Z</time>
      </trkpt>
      <trkpt lat="49.61264" lon="1.7107">
        <ele>250</ele>
        <time>2015-10-13T11:32:30Z</time>
      </trkpt>
      <trkpt lat="49.61264" lon="1.71056">
        <ele>249</ele>
        <time>2015-10-13T11:32:43Z</time>
      </trkpt>
      <trkpt lat="49.61264" lon="1.71028">
        <ele>251</ele>
        <time>2015-10-13T11:32:53Z</time>
      </trkpt>
      <trkpt lat="49.61254" lon="1.71004">
        <ele>255</ele>
        <time>2015-10-13T11:33:00Z</time>
      </trkpt>
      <trkpt lat="49.6125" lon="1.70982">
        <ele>254</ele>
        <time>2015-10-13T11:33:09Z</time>
      </trkpt>
      <trkpt lat="49.61247" lon="1.70955">
        <ele>254</ele>
        <time>2015-10-13T11:33:21Z</time>
      </trkpt>
      <trkpt lat="49.61247" lon="1.70951">
        <ele>254</ele>
        <time>2015-10-13T11:33:23Z</time>
      </trkpt>
      <trkpt lat="49.61238" lon="1.70946">
        <ele>256</ele>
        <time>2015-10-13T11:33:37Z</time>
      </trkpt>
      <trkpt lat="49.61229" lon="1.70917">
        <ele>256</ele>
        <time>2015-10-13T11:33:55Z</time>
      </trkpt>
      <trkpt lat="49.61219" lon="1.709">
        <ele>250</ele>
        <time>2015-10-13T11:34:08Z</time>
      </trkpt>
      <trkpt lat="49.61209" lon="1.70889">
        <ele>250</ele>
        <time>2015-10-13T11:34:18Z</time>
      </trkpt>
      <trkpt lat="49.612" lon="1.70876">
        <ele>252</ele>
        <time>2015-10-13T11:34:28Z</time>
      </trkpt>
      <trkpt lat="49.61184" lon="1.70856">
        <ele>256</ele>
        <time>2015-10-13T11:34:44Z</time>
      </trkpt>
      <trkpt lat="49.61172" lon="1.70839">
        <ele>257</ele>
        <time>2015-10-13T11:34:58Z</time>
      </trkpt>
      <trkpt lat="49.61164" lon="1.7082">
        <ele>260</ele>
        <time>2015-10-13T11:35:12Z</time>
      </trkpt>
      <trkpt lat="49.61152" lon="1.70802">
        <ele>258</ele>
        <time>2015-10-13T11:35:27Z</time>
      </trkpt>
      <trkpt lat="49.61138" lon="1.70778">
        <ele>263</ele>
        <time>2015-10-13T11:35:37Z</time>
      </trkpt>
      <trkpt lat="49.61127" lon="1.70765">
        <ele>261</ele>
        <time>2015-10-13T11:35:46Z</time>
      </trkpt>
      <trkpt lat="49.61124" lon="1.70761">
        <ele>260</ele>
        <time>2015-10-13T11:35:49Z</time>
      </trkpt>
      <trkpt lat="49.61118" lon="1.70762">
        <ele>262</ele>
        <time>2015-10-13T11:36:01Z</time>
      </trkpt>
      <trkpt lat="49.61113" lon="1.70763">
        <ele>260</ele>
        <time>2015-10-13T11:36:06Z</time>
      </trkpt>
      <trkpt lat="49.61118" lon="1.70762">
        <ele>262</ele>
        <time>2015-10-13T11:36:15Z</time>
      </trkpt>
      <trkpt lat="49.61118" lon="1.70762">
        <ele>218.6</ele>
        <time>2015-10-13T11:36:15Z</time>
      </trkpt>
    </trkseg>
  </trk>
</gpx>